<?xml version="1.0" encoding="UTF-8" standalone="no" ?>
<gpx xmlns="http://www.topografix.com/GPX/1/1" xmlns:xsi="http://www.w3.org/2001/XMLSchema-instance" xsi:schemaLocation="http://www.topografix.com/GPX/1/1 http://www.topografix.com/GPX/1/1/gpx.xsd" version="1.1" creator="VisuGPX - https://www.visugpx.com">
  <metadata>
    <name>Maroc2011 - Casablanca à Tanger</name>
    <desc><![CDATA[La côte Marocaine ... Un air de vendée.]]></desc>
  </metadata>
  <trk>
    <name><![CDATA[Casablanca Tanger]]></name>
    <trkseg>
      <trkpt lat="33.59737" lon="-7.61444">
        <ele>19.527</ele>
        <time>2011-04-28T08:31:17Z</time>
      </trkpt>
      <trkpt lat="33.59737" lon="-7.61444">
        <ele>23.215</ele>
        <time>2011-04-28T08:32:53Z</time>
      </trkpt>
      <trkpt lat="33.59591" lon="-7.60958">
        <ele>23.583</ele>
        <time>2011-04-28T08:34:05Z</time>
      </trkpt>
      <trkpt lat="33.59587" lon="-7.60961">
        <ele>23.712</ele>
        <time>2011-04-28T08:35:14Z</time>
      </trkpt>
      <trkpt lat="33.59635" lon="-7.6095">
        <ele>23.16</ele>
        <time>2011-04-28T08:35:39Z</time>
      </trkpt>
      <trkpt lat="33.59648" lon="-7.60966">
        <ele>5.797</ele>
        <time>2011-04-28T08:37:00Z</time>
      </trkpt>
      <trkpt lat="33.59664" lon="-7.6093">
        <ele>5.945</ele>
        <time>2011-04-28T08:37:04Z</time>
      </trkpt>
      <trkpt lat="33.59595" lon="-7.60016">
        <ele>7.962</ele>
        <time>2011-04-28T08:38:56Z</time>
      </trkpt>
      <trkpt lat="33.59609" lon="-7.59865">
        <ele>8.062</ele>
        <time>2011-04-28T08:39:07Z</time>
      </trkpt>
      <trkpt lat="33.59762" lon="-7.59383">
        <ele>9.45</ele>
        <time>2011-04-28T08:40:07Z</time>
      </trkpt>
      <trkpt lat="33.5978" lon="-7.59352">
        <ele>9.271</ele>
        <time>2011-04-28T08:40:11Z</time>
      </trkpt>
      <trkpt lat="33.59724" lon="-7.59178">
        <ele>11.699</ele>
        <time>2011-04-28T08:40:26Z</time>
      </trkpt>
      <trkpt lat="33.5975" lon="-7.59072">
        <ele>15.82</ele>
        <time>2011-04-28T08:40:35Z</time>
      </trkpt>
      <trkpt lat="33.59831" lon="-7.58035">
        <ele>21.835</ele>
        <time>2011-04-28T08:41:54Z</time>
      </trkpt>
      <trkpt lat="33.59851" lon="-7.57439">
        <ele>16.874</ele>
        <time>2011-04-28T08:42:52Z</time>
      </trkpt>
      <trkpt lat="33.59944" lon="-7.56871">
        <ele>22.58</ele>
        <time>2011-04-28T08:43:39Z</time>
      </trkpt>
      <trkpt lat="33.60008" lon="-7.56347">
        <ele>22.775</ele>
        <time>2011-04-28T08:44:09Z</time>
      </trkpt>
      <trkpt lat="33.60412" lon="-7.54524">
        <ele>17.808</ele>
        <time>2011-04-28T08:46:15Z</time>
      </trkpt>
      <trkpt lat="33.60407" lon="-7.54057">
        <ele>18.826</ele>
        <time>2011-04-28T08:47:05Z</time>
      </trkpt>
      <trkpt lat="33.60461" lon="-7.5366">
        <ele>24.996</ele>
        <time>2011-04-28T08:47:47Z</time>
      </trkpt>
      <trkpt lat="33.60462" lon="-7.53607">
        <ele>24.87</ele>
        <time>2011-04-28T08:47:50Z</time>
      </trkpt>
      <trkpt lat="33.60393" lon="-7.53426">
        <ele>27.021</ele>
        <time>2011-04-28T08:48:01Z</time>
      </trkpt>
      <trkpt lat="33.6037" lon="-7.53151">
        <ele>28.736</ele>
        <time>2011-04-28T08:48:19Z</time>
      </trkpt>
      <trkpt lat="33.60294" lon="-7.52789">
        <ele>40.289</ele>
        <time>2011-04-28T08:49:04Z</time>
      </trkpt>
      <trkpt lat="33.60229" lon="-7.52454">
        <ele>47.068</ele>
        <time>2011-04-28T08:49:23Z</time>
      </trkpt>
      <trkpt lat="33.60207" lon="-7.52274">
        <ele>48.219</ele>
        <time>2011-04-28T08:49:34Z</time>
      </trkpt>
      <trkpt lat="33.60128" lon="-7.51525">
        <ele>58.794</ele>
        <time>2011-04-28T08:50:24Z</time>
      </trkpt>
      <trkpt lat="33.60152" lon="-7.5108">
        <ele>63.786</ele>
        <time>2011-04-28T08:50:51Z</time>
      </trkpt>
      <trkpt lat="33.59767" lon="-7.495">
        <ele>75.202</ele>
        <time>2011-04-28T08:53:07Z</time>
      </trkpt>
      <trkpt lat="33.59767" lon="-7.48826">
        <ele>83.237</ele>
        <time>2011-04-28T08:53:48Z</time>
      </trkpt>
      <trkpt lat="33.59826" lon="-7.48246">
        <ele>90.817</ele>
        <time>2011-04-28T08:54:24Z</time>
      </trkpt>
      <trkpt lat="33.59907" lon="-7.47854">
        <ele>96.534</ele>
        <time>2011-04-28T08:54:44Z</time>
      </trkpt>
      <trkpt lat="33.59969" lon="-7.47301">
        <ele>93.538</ele>
        <time>2011-04-28T08:55:06Z</time>
      </trkpt>
      <trkpt lat="33.59961" lon="-7.47034">
        <ele>91.518</ele>
        <time>2011-04-28T08:55:17Z</time>
      </trkpt>
      <trkpt lat="33.59955" lon="-7.46899">
        <ele>87.386</ele>
        <time>2011-04-28T08:55:46Z</time>
      </trkpt>
      <trkpt lat="33.6002" lon="-7.46842">
        <ele>89.983</ele>
        <time>2011-04-28T08:55:52Z</time>
      </trkpt>
      <trkpt lat="33.60228" lon="-7.46757">
        <ele>95.592</ele>
        <time>2011-04-28T08:56:07Z</time>
      </trkpt>
      <trkpt lat="33.60248" lon="-7.46749">
        <ele>95.592</ele>
        <time>2011-04-28T08:56:08Z</time>
      </trkpt>
      <trkpt lat="33.60994" lon="-7.46469">
        <ele>84.588</ele>
        <time>2011-04-28T08:56:49Z</time>
      </trkpt>
      <trkpt lat="33.62089" lon="-7.45681">
        <ele>70.729</ele>
        <time>2011-04-28T08:58:13Z</time>
      </trkpt>
      <trkpt lat="33.6279" lon="-7.45201">
        <ele>44.033</ele>
        <time>2011-04-28T08:59:13Z</time>
      </trkpt>
      <trkpt lat="33.62889" lon="-7.45151">
        <ele>42.97</ele>
        <time>2011-04-28T08:59:22Z</time>
      </trkpt>
      <trkpt lat="33.63202" lon="-7.45196">
        <ele>42.641</ele>
        <time>2011-04-28T09:00:22Z</time>
      </trkpt>
      <trkpt lat="33.63335" lon="-7.45185">
        <ele>36.837</ele>
        <time>2011-04-28T09:00:42Z</time>
      </trkpt>
      <trkpt lat="33.63388" lon="-7.45166">
        <ele>34.612</ele>
        <time>2011-04-28T09:00:54Z</time>
      </trkpt>
      <trkpt lat="33.63503" lon="-7.45037">
        <ele>32.063</ele>
        <time>2011-04-28T09:01:19Z</time>
      </trkpt>
      <trkpt lat="33.63565" lon="-7.44868">
        <ele>31.347</ele>
        <time>2011-04-28T09:01:45Z</time>
      </trkpt>
      <trkpt lat="33.63594" lon="-7.4459">
        <ele>32.89</ele>
        <time>2011-04-28T09:02:20Z</time>
      </trkpt>
      <trkpt lat="33.63815" lon="-7.44264">
        <ele>33.839</ele>
        <time>2011-04-28T09:02:53Z</time>
      </trkpt>
      <trkpt lat="33.64014" lon="-7.43797">
        <ele>42.123</ele>
        <time>2011-04-28T09:03:25Z</time>
      </trkpt>
      <trkpt lat="33.64077" lon="-7.43616">
        <ele>40.661</ele>
        <time>2011-04-28T09:03:35Z</time>
      </trkpt>
      <trkpt lat="33.64094" lon="-7.43506">
        <ele>41.077</ele>
        <time>2011-04-28T09:03:41Z</time>
      </trkpt>
      <trkpt lat="33.64063" lon="-7.43236">
        <ele>41.908</ele>
        <time>2011-04-28T09:03:55Z</time>
      </trkpt>
      <trkpt lat="33.64162" lon="-7.42922">
        <ele>45.076</ele>
        <time>2011-04-28T09:04:09Z</time>
      </trkpt>
      <trkpt lat="33.64459" lon="-7.42258">
        <ele>51.182</ele>
        <time>2011-04-28T09:04:48Z</time>
      </trkpt>
      <trkpt lat="33.64473" lon="-7.42131">
        <ele>53.594</ele>
        <time>2011-04-28T09:04:55Z</time>
      </trkpt>
      <trkpt lat="33.64517" lon="-7.41962">
        <ele>54.66</ele>
        <time>2011-04-28T09:05:04Z</time>
      </trkpt>
      <trkpt lat="33.64663" lon="-7.41784">
        <ele>49.616</ele>
        <time>2011-04-28T09:05:16Z</time>
      </trkpt>
      <trkpt lat="33.64901" lon="-7.41587">
        <ele>50.423</ele>
        <time>2011-04-28T09:05:30Z</time>
      </trkpt>
      <trkpt lat="33.65039" lon="-7.41375">
        <ele>50.072</ele>
        <time>2011-04-28T09:05:41Z</time>
      </trkpt>
      <trkpt lat="33.65096" lon="-7.41217">
        <ele>50.808</ele>
        <time>2011-04-28T09:05:48Z</time>
      </trkpt>
      <trkpt lat="33.65158" lon="-7.4065">
        <ele>52.813</ele>
        <time>2011-04-28T09:06:12Z</time>
      </trkpt>
      <trkpt lat="33.65243" lon="-7.40359">
        <ele>51.349</ele>
        <time>2011-04-28T09:06:25Z</time>
      </trkpt>
      <trkpt lat="33.65334" lon="-7.40229">
        <ele>49.789</ele>
        <time>2011-04-28T09:06:32Z</time>
      </trkpt>
      <trkpt lat="33.65409" lon="-7.40138">
        <ele>45.839</ele>
        <time>2011-04-28T09:06:37Z</time>
      </trkpt>
      <trkpt lat="33.65565" lon="-7.40018">
        <ele>32.326</ele>
        <time>2011-04-28T09:06:47Z</time>
      </trkpt>
      <trkpt lat="33.65761" lon="-7.40024">
        <ele>21.39</ele>
        <time>2011-04-28T09:07:00Z</time>
      </trkpt>
      <trkpt lat="33.65789" lon="-7.39978">
        <ele>19.888</ele>
        <time>2011-04-28T09:07:04Z</time>
      </trkpt>
      <trkpt lat="33.65778" lon="-7.39838">
        <ele>19.531</ele>
        <time>2011-04-28T09:07:17Z</time>
      </trkpt>
      <trkpt lat="33.65653" lon="-7.39817">
        <ele>26.984</ele>
        <time>2011-04-28T09:07:27Z</time>
      </trkpt>
      <trkpt lat="33.65583" lon="-7.39769">
        <ele>30.395</ele>
        <time>2011-04-28T09:07:32Z</time>
      </trkpt>
      <trkpt lat="33.6547" lon="-7.39596">
        <ele>41.355</ele>
        <time>2011-04-28T09:07:41Z</time>
      </trkpt>
      <trkpt lat="33.65429" lon="-7.39467">
        <ele>43.623</ele>
        <time>2011-04-28T09:07:46Z</time>
      </trkpt>
      <trkpt lat="33.65463" lon="-7.39424">
        <ele>49.365</ele>
        <time>2011-04-28T09:07:49Z</time>
      </trkpt>
      <trkpt lat="33.65438" lon="-7.39367">
        <ele>52.811</ele>
        <time>2011-04-28T09:07:50Z</time>
      </trkpt>
      <trkpt lat="33.65459" lon="-7.39219">
        <ele>56.437</ele>
        <time>2011-04-28T09:07:56Z</time>
      </trkpt>
      <trkpt lat="33.65547" lon="-7.39033">
        <ele>66.074</ele>
        <time>2011-04-28T09:08:04Z</time>
      </trkpt>
      <trkpt lat="33.65996" lon="-7.38131">
        <ele>65.141</ele>
        <time>2011-04-28T09:08:45Z</time>
      </trkpt>
      <trkpt lat="33.66285" lon="-7.36663">
        <ele>77.566</ele>
        <time>2011-04-28T09:09:48Z</time>
      </trkpt>
      <trkpt lat="33.66355" lon="-7.36309">
        <ele>78.798</ele>
        <time>2011-04-28T09:10:02Z</time>
      </trkpt>
      <trkpt lat="33.66477" lon="-7.35705">
        <ele>75.749</ele>
        <time>2011-04-28T09:10:35Z</time>
      </trkpt>
      <trkpt lat="33.66541" lon="-7.35614">
        <ele>75.133</ele>
        <time>2011-04-28T09:10:44Z</time>
      </trkpt>
      <trkpt lat="33.66857" lon="-7.3543">
        <ele>77.517</ele>
        <time>2011-04-28T09:11:07Z</time>
      </trkpt>
      <trkpt lat="33.66889" lon="-7.35463">
        <ele>76.665</ele>
        <time>2011-04-28T09:11:12Z</time>
      </trkpt>
      <trkpt lat="33.67352" lon="-7.35206">
        <ele>76.921</ele>
        <time>2011-04-28T09:11:36Z</time>
      </trkpt>
      <trkpt lat="33.67973" lon="-7.34897">
        <ele>68.2</ele>
        <time>2011-04-28T09:12:12Z</time>
      </trkpt>
      <trkpt lat="33.68617" lon="-7.3346">
        <ele>73.464</ele>
        <time>2011-04-28T09:13:54Z</time>
      </trkpt>
      <trkpt lat="33.68799" lon="-7.33319">
        <ele>63.704</ele>
        <time>2011-04-28T09:14:04Z</time>
      </trkpt>
      <trkpt lat="33.68907" lon="-7.33276">
        <ele>59.867</ele>
        <time>2011-04-28T09:14:09Z</time>
      </trkpt>
      <trkpt lat="33.69094" lon="-7.33212">
        <ele>50.205</ele>
        <time>2011-04-28T09:14:20Z</time>
      </trkpt>
      <trkpt lat="33.69254" lon="-7.33023">
        <ele>40.857</ele>
        <time>2011-04-28T09:14:31Z</time>
      </trkpt>
      <trkpt lat="33.69378" lon="-7.32913">
        <ele>37.175</ele>
        <time>2011-04-28T09:14:38Z</time>
      </trkpt>
      <trkpt lat="33.69445" lon="-7.32858">
        <ele>28.756</ele>
        <time>2011-04-28T09:14:43Z</time>
      </trkpt>
      <trkpt lat="33.69571" lon="-7.32906">
        <ele>17.283</ele>
        <time>2011-04-28T09:14:55Z</time>
      </trkpt>
      <trkpt lat="33.69665" lon="-7.32875">
        <ele>15.592</ele>
        <time>2011-04-28T09:15:06Z</time>
      </trkpt>
      <trkpt lat="33.69679" lon="-7.32855">
        <ele>14.699</ele>
        <time>2011-04-28T09:15:08Z</time>
      </trkpt>
      <trkpt lat="33.69761" lon="-7.32567">
        <ele>31.255</ele>
        <time>2011-04-28T09:15:26Z</time>
      </trkpt>
      <trkpt lat="33.69835" lon="-7.32475">
        <ele>38.764</ele>
        <time>2011-04-28T09:15:31Z</time>
      </trkpt>
      <trkpt lat="33.69925" lon="-7.32412">
        <ele>41.954</ele>
        <time>2011-04-28T09:15:36Z</time>
      </trkpt>
      <trkpt lat="33.69956" lon="-7.32354">
        <ele>45.119</ele>
        <time>2011-04-28T09:15:39Z</time>
      </trkpt>
      <trkpt lat="33.6993" lon="-7.31956">
        <ele>62.608</ele>
        <time>2011-04-28T09:15:58Z</time>
      </trkpt>
      <trkpt lat="33.70768" lon="-7.29416">
        <ele>81.034</ele>
        <time>2011-04-28T09:18:06Z</time>
      </trkpt>
      <trkpt lat="33.71419" lon="-7.27487">
        <ele>85.436</ele>
        <time>2011-04-28T09:19:23Z</time>
      </trkpt>
      <trkpt lat="33.71909" lon="-7.26116">
        <ele>93.926</ele>
        <time>2011-04-28T09:20:24Z</time>
      </trkpt>
      <trkpt lat="33.72089" lon="-7.25648">
        <ele>91.985</ele>
        <time>2011-04-28T09:20:44Z</time>
      </trkpt>
      <trkpt lat="33.72434" lon="-7.2527">
        <ele>84.647</ele>
        <time>2011-04-28T09:21:08Z</time>
      </trkpt>
      <trkpt lat="33.72546" lon="-7.24752">
        <ele>92.73</ele>
        <time>2011-04-28T09:21:30Z</time>
      </trkpt>
      <trkpt lat="33.7264" lon="-7.24528">
        <ele>95.04</ele>
        <time>2011-04-28T09:21:39Z</time>
      </trkpt>
      <trkpt lat="33.72677" lon="-7.24457">
        <ele>93.546</ele>
        <time>2011-04-28T09:21:42Z</time>
      </trkpt>
      <trkpt lat="33.73496" lon="-7.23609">
        <ele>87.14</ele>
        <time>2011-04-28T09:22:25Z</time>
      </trkpt>
      <trkpt lat="33.73892" lon="-7.23156">
        <ele>86.834</ele>
        <time>2011-04-28T09:22:47Z</time>
      </trkpt>
      <trkpt lat="33.74769" lon="-7.2219">
        <ele>75.722</ele>
        <time>2011-04-28T09:23:36Z</time>
      </trkpt>
      <trkpt lat="33.74995" lon="-7.22005">
        <ele>74.682</ele>
        <time>2011-04-28T09:23:48Z</time>
      </trkpt>
      <trkpt lat="33.75155" lon="-7.2194">
        <ele>75.575</ele>
        <time>2011-04-28T09:23:55Z</time>
      </trkpt>
      <trkpt lat="33.75724" lon="-7.21786">
        <ele>67.26</ele>
        <time>2011-04-28T09:24:19Z</time>
      </trkpt>
      <trkpt lat="33.75871" lon="-7.21657">
        <ele>63.171</ele>
        <time>2011-04-28T09:24:27Z</time>
      </trkpt>
      <trkpt lat="33.76167" lon="-7.21298">
        <ele>56.708</ele>
        <time>2011-04-28T09:24:56Z</time>
      </trkpt>
      <trkpt lat="33.76844" lon="-7.19964">
        <ele>59.694</ele>
        <time>2011-04-28T09:26:20Z</time>
      </trkpt>
      <trkpt lat="33.77312" lon="-7.19178">
        <ele>55.466</ele>
        <time>2011-04-28T09:27:04Z</time>
      </trkpt>
      <trkpt lat="33.77826" lon="-7.18214">
        <ele>48.602</ele>
        <time>2011-04-28T09:27:49Z</time>
      </trkpt>
      <trkpt lat="33.7795" lon="-7.18047">
        <ele>47.47</ele>
        <time>2011-04-28T09:27:57Z</time>
      </trkpt>
      <trkpt lat="33.7817" lon="-7.17827">
        <ele>45.106</ele>
        <time>2011-04-28T09:28:09Z</time>
      </trkpt>
      <trkpt lat="33.78534" lon="-7.1691">
        <ele>37.532</ele>
        <time>2011-04-28T09:29:00Z</time>
      </trkpt>
      <trkpt lat="33.79138" lon="-7.15627">
        <ele>33.799</ele>
        <time>2011-04-28T09:31:04Z</time>
      </trkpt>
      <trkpt lat="33.79256" lon="-7.1531">
        <ele>37.109</ele>
        <time>2011-04-28T09:31:33Z</time>
      </trkpt>
      <trkpt lat="33.79347" lon="-7.15064">
        <ele>30.795</ele>
        <time>2011-04-28T09:31:48Z</time>
      </trkpt>
      <trkpt lat="33.79665" lon="-7.14716">
        <ele>35.319</ele>
        <time>2011-04-28T09:32:16Z</time>
      </trkpt>
      <trkpt lat="33.79766" lon="-7.14546">
        <ele>36.556</ele>
        <time>2011-04-28T09:32:27Z</time>
      </trkpt>
      <trkpt lat="33.80924" lon="-7.12402">
        <ele>36.801</ele>
        <time>2011-04-28T09:34:23Z</time>
      </trkpt>
      <trkpt lat="33.81122" lon="-7.11929">
        <ele>37.196</ele>
        <time>2011-04-28T09:34:45Z</time>
      </trkpt>
      <trkpt lat="33.81178" lon="-7.11746">
        <ele>37.276</ele>
        <time>2011-04-28T09:34:55Z</time>
      </trkpt>
      <trkpt lat="33.81202" lon="-7.11523">
        <ele>37.635</ele>
        <time>2011-04-28T09:35:07Z</time>
      </trkpt>
      <trkpt lat="33.81328" lon="-7.11321">
        <ele>41.915</ele>
        <time>2011-04-28T09:35:22Z</time>
      </trkpt>
      <trkpt lat="33.81337" lon="-7.11167">
        <ele>38.22</ele>
        <time>2011-04-28T09:35:29Z</time>
      </trkpt>
      <trkpt lat="33.81405" lon="-7.1107">
        <ele>32.061</ele>
        <time>2011-04-28T09:35:40Z</time>
      </trkpt>
      <trkpt lat="33.81483" lon="-7.1107">
        <ele>29.799</ele>
        <time>2011-04-28T09:35:51Z</time>
      </trkpt>
      <trkpt lat="33.81716" lon="-7.10683">
        <ele>49.749</ele>
        <time>2011-04-28T09:37:44Z</time>
      </trkpt>
      <trkpt lat="33.81897" lon="-7.10382">
        <ele>57.185</ele>
        <time>2011-04-28T09:38:04Z</time>
      </trkpt>
      <trkpt lat="33.81935" lon="-7.10122">
        <ele>57.715</ele>
        <time>2011-04-28T09:38:14Z</time>
      </trkpt>
      <trkpt lat="33.8202" lon="-7.09858">
        <ele>55.337</ele>
        <time>2011-04-28T09:38:25Z</time>
      </trkpt>
      <trkpt lat="33.83519" lon="-7.06234">
        <ele>69.366</ele>
        <time>2011-04-28T09:41:06Z</time>
      </trkpt>
      <trkpt lat="33.8365" lon="-7.05967">
        <ele>69.899</ele>
        <time>2011-04-28T09:41:18Z</time>
      </trkpt>
      <trkpt lat="33.83897" lon="-7.05526">
        <ele>61.875</ele>
        <time>2011-04-28T09:41:43Z</time>
      </trkpt>
      <trkpt lat="33.84616" lon="-7.04483">
        <ele>49.405</ele>
        <time>2011-04-28T09:43:14Z</time>
      </trkpt>
      <trkpt lat="33.85139" lon="-7.03895">
        <ele>45.314</ele>
        <time>2011-04-28T09:44:33Z</time>
      </trkpt>
      <trkpt lat="33.85267" lon="-7.03802">
        <ele>43.766</ele>
        <time>2011-04-28T09:44:48Z</time>
      </trkpt>
      <trkpt lat="33.85974" lon="-7.02288">
        <ele>52.311</ele>
        <time>2011-04-28T09:47:07Z</time>
      </trkpt>
      <trkpt lat="33.86229" lon="-7.01732">
        <ele>48.987</ele>
        <time>2011-04-28T09:47:38Z</time>
      </trkpt>
      <trkpt lat="33.86533" lon="-7.01019">
        <ele>51.725</ele>
        <time>2011-04-28T09:48:20Z</time>
      </trkpt>
      <trkpt lat="33.86494" lon="-7.00864">
        <ele>52.49</ele>
        <time>2011-04-28T09:48:26Z</time>
      </trkpt>
      <trkpt lat="33.86585" lon="-7.00569">
        <ele>55.63</ele>
        <time>2011-04-28T09:48:40Z</time>
      </trkpt>
      <trkpt lat="33.86698" lon="-7.00371">
        <ele>57.11</ele>
        <time>2011-04-28T09:48:50Z</time>
      </trkpt>
      <trkpt lat="33.86893" lon="-7.00111">
        <ele>55.313</ele>
        <time>2011-04-28T09:49:04Z</time>
      </trkpt>
      <trkpt lat="33.87045" lon="-7.00028">
        <ele>53.92</ele>
        <time>2011-04-28T09:49:12Z</time>
      </trkpt>
      <trkpt lat="33.87215" lon="-6.99837">
        <ele>50.328</ele>
        <time>2011-04-28T09:49:25Z</time>
      </trkpt>
      <trkpt lat="33.87286" lon="-6.99724">
        <ele>44.395</ele>
        <time>2011-04-28T09:49:32Z</time>
      </trkpt>
      <trkpt lat="33.87416" lon="-6.99133">
        <ele>43.746</ele>
        <time>2011-04-28T09:50:34Z</time>
      </trkpt>
      <trkpt lat="33.87552" lon="-6.98807">
        <ele>49.537</ele>
        <time>2011-04-28T09:50:52Z</time>
      </trkpt>
      <trkpt lat="33.87725" lon="-6.98579">
        <ele>50.855</ele>
        <time>2011-04-28T09:51:04Z</time>
      </trkpt>
      <trkpt lat="33.88622" lon="-6.97676">
        <ele>36.753</ele>
        <time>2011-04-28T09:52:21Z</time>
      </trkpt>
      <trkpt lat="33.88804" lon="-6.97451">
        <ele>38.144</ele>
        <time>2011-04-28T09:52:41Z</time>
      </trkpt>
      <trkpt lat="33.88831" lon="-6.97414">
        <ele>36.627</ele>
        <time>2011-04-28T09:52:44Z</time>
      </trkpt>
      <trkpt lat="33.88887" lon="-6.97197">
        <ele>37.697</ele>
        <time>2011-04-28T09:52:59Z</time>
      </trkpt>
      <trkpt lat="33.88866" lon="-6.96881">
        <ele>42.538</ele>
        <time>2011-04-28T09:53:20Z</time>
      </trkpt>
      <trkpt lat="33.88877" lon="-6.96788">
        <ele>42.403</ele>
        <time>2011-04-28T09:53:26Z</time>
      </trkpt>
      <trkpt lat="33.8894" lon="-6.96631">
        <ele>43.856</ele>
        <time>2011-04-28T09:53:36Z</time>
      </trkpt>
      <trkpt lat="33.89148" lon="-6.96319">
        <ele>42.806</ele>
        <time>2011-04-28T09:54:12Z</time>
      </trkpt>
      <trkpt lat="33.8932" lon="-6.96115">
        <ele>46.38</ele>
        <time>2011-04-28T09:54:31Z</time>
      </trkpt>
      <trkpt lat="33.89412" lon="-6.95972">
        <ele>43.223</ele>
        <time>2011-04-28T09:54:41Z</time>
      </trkpt>
      <trkpt lat="33.89962" lon="-6.94648">
        <ele>60.395</ele>
        <time>2011-04-28T09:55:57Z</time>
      </trkpt>
      <trkpt lat="33.90058" lon="-6.94446">
        <ele>61.299</ele>
        <time>2011-04-28T09:56:08Z</time>
      </trkpt>
      <trkpt lat="33.90278" lon="-6.94124">
        <ele>64.098</ele>
        <time>2011-04-28T09:56:28Z</time>
      </trkpt>
      <trkpt lat="33.90398" lon="-6.93956">
        <ele>61.996</ele>
        <time>2011-04-28T09:56:40Z</time>
      </trkpt>
      <trkpt lat="33.906" lon="-6.93749">
        <ele>60.784</ele>
        <time>2011-04-28T09:57:34Z</time>
      </trkpt>
      <trkpt lat="33.90626" lon="-6.93817">
        <ele>61.978</ele>
        <time>2011-04-28T10:02:03Z</time>
      </trkpt>
      <trkpt lat="33.90625" lon="-6.93826">
        <ele>59.482</ele>
        <time>2011-04-28T10:03:06Z</time>
      </trkpt>
      <trkpt lat="33.90582" lon="-6.93768">
        <ele>60.471</ele>
        <time>2011-04-28T10:05:42Z</time>
      </trkpt>
      <trkpt lat="33.90664" lon="-6.93684">
        <ele>64.139</ele>
        <time>2011-04-28T10:05:53Z</time>
      </trkpt>
      <trkpt lat="33.90852" lon="-6.935">
        <ele>68.12</ele>
        <time>2011-04-28T10:06:10Z</time>
      </trkpt>
      <trkpt lat="33.91112" lon="-6.93262">
        <ele>59.236</ele>
        <time>2011-04-28T10:06:35Z</time>
      </trkpt>
      <trkpt lat="33.91296" lon="-6.93046">
        <ele>65.192</ele>
        <time>2011-04-28T10:07:01Z</time>
      </trkpt>
      <trkpt lat="33.91579" lon="-6.92707">
        <ele>61.891</ele>
        <time>2011-04-28T10:07:54Z</time>
      </trkpt>
      <trkpt lat="33.91655" lon="-6.92632">
        <ele>65.915</ele>
        <time>2011-04-28T10:08:01Z</time>
      </trkpt>
      <trkpt lat="33.91805" lon="-6.92486">
        <ele>61.869</ele>
        <time>2011-04-28T10:08:25Z</time>
      </trkpt>
      <trkpt lat="33.91826" lon="-6.92487">
        <ele>62.501</ele>
        <time>2011-04-28T10:08:31Z</time>
      </trkpt>
      <trkpt lat="33.92292" lon="-6.93042">
        <ele>56.724</ele>
        <time>2011-04-28T10:09:40Z</time>
      </trkpt>
      <trkpt lat="33.92615" lon="-6.93426">
        <ele>27.804</ele>
        <time>2011-04-28T10:10:37Z</time>
      </trkpt>
      <trkpt lat="33.92938" lon="-6.93126">
        <ele>30.359</ele>
        <time>2011-04-28T10:11:21Z</time>
      </trkpt>
      <trkpt lat="33.93095" lon="-6.92934">
        <ele>31.207</ele>
        <time>2011-04-28T10:12:04Z</time>
      </trkpt>
      <trkpt lat="33.93417" lon="-6.94183">
        <ele>23.809</ele>
        <time>2011-04-28T10:14:04Z</time>
      </trkpt>
      <trkpt lat="33.93511" lon="-6.94346">
        <ele>15.217</ele>
        <time>2011-04-28T10:14:25Z</time>
      </trkpt>
      <trkpt lat="33.93775" lon="-6.94028">
        <ele>20.351</ele>
        <time>2011-04-28T10:14:51Z</time>
      </trkpt>
      <trkpt lat="33.93917" lon="-6.93859">
        <ele>15.145</ele>
        <time>2011-04-28T10:15:05Z</time>
      </trkpt>
      <trkpt lat="33.93932" lon="-6.93834">
        <ele>14.512</ele>
        <time>2011-04-28T10:15:09Z</time>
      </trkpt>
      <trkpt lat="33.9396" lon="-6.93856">
        <ele>18.601</ele>
        <time>2011-04-28T10:15:17Z</time>
      </trkpt>
      <trkpt lat="33.94006" lon="-6.93915">
        <ele>19.544</ele>
        <time>2011-04-28T10:15:25Z</time>
      </trkpt>
      <trkpt lat="33.94049" lon="-6.93942">
        <ele>14.497</ele>
        <time>2011-04-28T10:15:34Z</time>
      </trkpt>
      <trkpt lat="33.94211" lon="-6.93738">
        <ele>16.812</ele>
        <time>2011-04-28T10:16:02Z</time>
      </trkpt>
      <trkpt lat="33.94239" lon="-6.93752">
        <ele>18.921</ele>
        <time>2011-04-28T10:16:09Z</time>
      </trkpt>
      <trkpt lat="33.94624" lon="-6.93348">
        <ele>11.717</ele>
        <time>2011-04-28T10:17:14Z</time>
      </trkpt>
      <trkpt lat="33.94678" lon="-6.93286">
        <ele>6.949</ele>
        <time>2011-04-28T10:17:26Z</time>
      </trkpt>
      <trkpt lat="33.94702" lon="-6.93322">
        <ele>6.55</ele>
        <time>2011-04-28T10:17:38Z</time>
      </trkpt>
      <trkpt lat="33.94693" lon="-6.93296">
        <ele>8.676</ele>
        <time>2011-04-28T10:18:13Z</time>
      </trkpt>
      <trkpt lat="33.94824" lon="-6.93167">
        <ele>4.96</ele>
        <time>2011-04-28T10:18:34Z</time>
      </trkpt>
      <trkpt lat="33.94834" lon="-6.93107">
        <ele>4.308</ele>
        <time>2011-04-28T10:18:43Z</time>
      </trkpt>
      <trkpt lat="33.94772" lon="-6.93067">
        <ele>9.836</ele>
        <time>2011-04-28T10:18:55Z</time>
      </trkpt>
      <trkpt lat="33.94742" lon="-6.92978">
        <ele>15.121</ele>
        <time>2011-04-28T10:19:03Z</time>
      </trkpt>
      <trkpt lat="33.94782" lon="-6.92931">
        <ele>23.619</ele>
        <time>2011-04-28T10:19:33Z</time>
      </trkpt>
      <trkpt lat="33.94843" lon="-6.9286">
        <ele>27.76</ele>
        <time>2011-04-28T10:19:38Z</time>
      </trkpt>
      <trkpt lat="33.95171" lon="-6.9253">
        <ele>30.979</ele>
        <time>2011-04-28T10:19:57Z</time>
      </trkpt>
      <trkpt lat="33.95681" lon="-6.92066">
        <ele>16.895</ele>
        <time>2011-04-28T10:20:29Z</time>
      </trkpt>
      <trkpt lat="33.96151" lon="-6.91747">
        <ele>10.424</ele>
        <time>2011-04-28T10:21:25Z</time>
      </trkpt>
      <trkpt lat="33.96208" lon="-6.91676">
        <ele>13.709</ele>
        <time>2011-04-28T10:29:09Z</time>
      </trkpt>
      <trkpt lat="33.96247" lon="-6.91641">
        <ele>15.43</ele>
        <time>2011-04-28T10:29:13Z</time>
      </trkpt>
      <trkpt lat="33.96582" lon="-6.91251">
        <ele>20.705</ele>
        <time>2011-04-28T10:29:40Z</time>
      </trkpt>
      <trkpt lat="33.96774" lon="-6.91126">
        <ele>15.583</ele>
        <time>2011-04-28T10:29:53Z</time>
      </trkpt>
      <trkpt lat="33.96929" lon="-6.90909">
        <ele>19.872</ele>
        <time>2011-04-28T10:30:06Z</time>
      </trkpt>
      <trkpt lat="33.96949" lon="-6.90742">
        <ele>20.861</ele>
        <time>2011-04-28T10:30:14Z</time>
      </trkpt>
      <trkpt lat="33.96963" lon="-6.90617">
        <ele>19.152</ele>
        <time>2011-04-28T10:30:21Z</time>
      </trkpt>
      <trkpt lat="33.97255" lon="-6.90261">
        <ele>23.526</ele>
        <time>2011-04-28T10:30:43Z</time>
      </trkpt>
      <trkpt lat="33.97686" lon="-6.89835">
        <ele>24.483</ele>
        <time>2011-04-28T10:31:14Z</time>
      </trkpt>
      <trkpt lat="33.98316" lon="-6.89385">
        <ele>14.688</ele>
        <time>2011-04-28T10:32:07Z</time>
      </trkpt>
      <trkpt lat="33.98658" lon="-6.88966">
        <ele>20.454</ele>
        <time>2011-04-28T10:32:42Z</time>
      </trkpt>
      <trkpt lat="33.99277" lon="-6.88377">
        <ele>15.083</ele>
        <time>2011-04-28T10:33:57Z</time>
      </trkpt>
      <trkpt lat="33.99335" lon="-6.88207">
        <ele>17.748</ele>
        <time>2011-04-28T10:34:06Z</time>
      </trkpt>
      <trkpt lat="34.00661" lon="-6.86877">
        <ele>22.028</ele>
        <time>2011-04-28T10:35:57Z</time>
      </trkpt>
      <trkpt lat="34.00828" lon="-6.86714">
        <ele>17.377</ele>
        <time>2011-04-28T10:36:40Z</time>
      </trkpt>
      <trkpt lat="34.00927" lon="-6.86719">
        <ele>18.646</ele>
        <time>2011-04-28T10:36:46Z</time>
      </trkpt>
      <trkpt lat="34.01129" lon="-6.86532">
        <ele>18.961</ele>
        <time>2011-04-28T10:37:03Z</time>
      </trkpt>
      <trkpt lat="34.01167" lon="-6.86401">
        <ele>19.126</ele>
        <time>2011-04-28T10:37:11Z</time>
      </trkpt>
      <trkpt lat="34.01228" lon="-6.86329">
        <ele>20.982</ele>
        <time>2011-04-28T10:37:17Z</time>
      </trkpt>
      <trkpt lat="34.01242" lon="-6.86323">
        <ele>21.065</ele>
        <time>2011-04-28T10:37:18Z</time>
      </trkpt>
      <trkpt lat="34.01472" lon="-6.86197">
        <ele>16.763</ele>
        <time>2011-04-28T10:37:38Z</time>
      </trkpt>
      <trkpt lat="34.01654" lon="-6.85974">
        <ele>19.028</ele>
        <time>2011-04-28T10:37:57Z</time>
      </trkpt>
      <trkpt lat="34.01669" lon="-6.85938">
        <ele>19.242</ele>
        <time>2011-04-28T10:37:59Z</time>
      </trkpt>
      <trkpt lat="34.01752" lon="-6.85873">
        <ele>17.791</ele>
        <time>2011-04-28T10:38:05Z</time>
      </trkpt>
      <trkpt lat="34.01856" lon="-6.8568">
        <ele>16.249</ele>
        <time>2011-04-28T10:38:22Z</time>
      </trkpt>
      <trkpt lat="34.01865" lon="-6.85669">
        <ele>16.025</ele>
        <time>2011-04-28T10:38:23Z</time>
      </trkpt>
      <trkpt lat="34.01976" lon="-6.85609">
        <ele>14.126</ele>
        <time>2011-04-28T10:38:32Z</time>
      </trkpt>
      <trkpt lat="34.02039" lon="-6.85611">
        <ele>14.359</ele>
        <time>2011-04-28T10:38:37Z</time>
      </trkpt>
      <trkpt lat="34.02145" lon="-6.85525">
        <ele>15.507</ele>
        <time>2011-04-28T10:38:53Z</time>
      </trkpt>
      <trkpt lat="34.02166" lon="-6.85338">
        <ele>16.824</ele>
        <time>2011-04-28T10:39:12Z</time>
      </trkpt>
      <trkpt lat="34.02229" lon="-6.85264">
        <ele>15.439</ele>
        <time>2011-04-28T10:39:20Z</time>
      </trkpt>
      <trkpt lat="34.02412" lon="-6.85135">
        <ele>10.487</ele>
        <time>2011-04-28T10:39:38Z</time>
      </trkpt>
      <trkpt lat="34.02649" lon="-6.84879">
        <ele>11.241</ele>
        <time>2011-04-28T10:40:08Z</time>
      </trkpt>
      <trkpt lat="34.02835" lon="-6.84582">
        <ele>9.855</ele>
        <time>2011-04-28T10:40:36Z</time>
      </trkpt>
      <trkpt lat="34.0288" lon="-6.84491">
        <ele>8.422</ele>
        <time>2011-04-28T10:40:47Z</time>
      </trkpt>
      <trkpt lat="34.02812" lon="-6.84367">
        <ele>15.772</ele>
        <time>2011-04-28T10:41:01Z</time>
      </trkpt>
      <trkpt lat="34.02734" lon="-6.84293">
        <ele>23.563</ele>
        <time>2011-04-28T10:41:08Z</time>
      </trkpt>
      <trkpt lat="34.02725" lon="-6.84285">
        <ele>23.562</ele>
        <time>2011-04-28T10:41:09Z</time>
      </trkpt>
      <trkpt lat="34.02625" lon="-6.84183">
        <ele>21.579</ele>
        <time>2011-04-28T10:41:23Z</time>
      </trkpt>
      <trkpt lat="34.02242" lon="-6.84061">
        <ele>14.455</ele>
        <time>2011-04-28T10:42:30Z</time>
      </trkpt>
      <trkpt lat="34.02214" lon="-6.84132">
        <ele>14.376</ele>
        <time>2011-04-28T10:42:35Z</time>
      </trkpt>
      <trkpt lat="34.02229" lon="-6.8406">
        <ele>14.041</ele>
        <time>2011-04-28T10:42:41Z</time>
      </trkpt>
      <trkpt lat="34.02619" lon="-6.84181">
        <ele>22.362</ele>
        <time>2011-04-28T10:43:34Z</time>
      </trkpt>
      <trkpt lat="34.02666" lon="-6.84222">
        <ele>21.723</ele>
        <time>2011-04-28T10:43:46Z</time>
      </trkpt>
      <trkpt lat="34.02735" lon="-6.8408">
        <ele>23.189</ele>
        <time>2011-04-28T10:44:08Z</time>
      </trkpt>
      <trkpt lat="34.02856" lon="-6.83926">
        <ele>25.532</ele>
        <time>2011-04-28T10:44:35Z</time>
      </trkpt>
      <trkpt lat="34.02988" lon="-6.83713">
        <ele>23.194</ele>
        <time>2011-04-28T10:44:56Z</time>
      </trkpt>
      <trkpt lat="34.02998" lon="-6.83651">
        <ele>18.742</ele>
        <time>2011-04-28T10:45:03Z</time>
      </trkpt>
      <trkpt lat="34.02915" lon="-6.83445">
        <ele>7.886</ele>
        <time>2011-04-28T10:45:26Z</time>
      </trkpt>
      <trkpt lat="34.02796" lon="-6.83292">
        <ele>1.777</ele>
        <time>2011-04-28T10:45:45Z</time>
      </trkpt>
      <trkpt lat="34.0271" lon="-6.82982">
        <ele>2.621</ele>
        <time>2011-04-28T10:46:14Z</time>
      </trkpt>
      <trkpt lat="34.02677" lon="-6.82647">
        <ele>3.444</ele>
        <time>2011-04-28T10:46:39Z</time>
      </trkpt>
      <trkpt lat="34.02651" lon="-6.82471">
        <ele>2.194</ele>
        <time>2011-04-28T10:46:52Z</time>
      </trkpt>
      <trkpt lat="34.02567" lon="-6.82233">
        <ele>2.035</ele>
        <time>2011-04-28T10:47:21Z</time>
      </trkpt>
      <trkpt lat="34.02603" lon="-6.82093">
        <ele>3.108</ele>
        <time>2011-04-28T10:47:43Z</time>
      </trkpt>
      <trkpt lat="34.02722" lon="-6.82068">
        <ele>6.343</ele>
        <time>2011-04-28T10:48:03Z</time>
      </trkpt>
      <trkpt lat="34.03066" lon="-6.82054">
        <ele>3.417</ele>
        <time>2011-04-28T10:48:33Z</time>
      </trkpt>
      <trkpt lat="34.03144" lon="-6.82006">
        <ele>4.756</ele>
        <time>2011-04-28T10:48:43Z</time>
      </trkpt>
      <trkpt lat="34.03208" lon="-6.82034">
        <ele>3.534</ele>
        <time>2011-04-28T10:48:51Z</time>
      </trkpt>
      <trkpt lat="34.03273" lon="-6.8197">
        <ele>1.87</ele>
        <time>2011-04-28T10:48:56Z</time>
      </trkpt>
      <trkpt lat="34.03426" lon="-6.81928">
        <ele>4.109</ele>
        <time>2011-04-28T10:49:19Z</time>
      </trkpt>
      <trkpt lat="34.03454" lon="-6.81893">
        <ele>4.728</ele>
        <time>2011-04-28T10:49:24Z</time>
      </trkpt>
      <trkpt lat="34.03453" lon="-6.8177">
        <ele>7.757</ele>
        <time>2011-04-28T10:49:40Z</time>
      </trkpt>
      <trkpt lat="34.03465" lon="-6.81728">
        <ele>7.504</ele>
        <time>2011-04-28T10:49:45Z</time>
      </trkpt>
      <trkpt lat="34.03552" lon="-6.81549">
        <ele>13.518</ele>
        <time>2011-04-28T10:50:07Z</time>
      </trkpt>
      <trkpt lat="34.03556" lon="-6.81401">
        <ele>19.038</ele>
        <time>2011-04-28T10:50:33Z</time>
      </trkpt>
      <trkpt lat="34.03605" lon="-6.81361">
        <ele>20.674</ele>
        <time>2011-04-28T10:50:42Z</time>
      </trkpt>
      <trkpt lat="34.03665" lon="-6.8131">
        <ele>22.051</ele>
        <time>2011-04-28T10:50:53Z</time>
      </trkpt>
      <trkpt lat="34.0378" lon="-6.81173">
        <ele>22.711</ele>
        <time>2011-04-28T10:51:24Z</time>
      </trkpt>
      <trkpt lat="34.03812" lon="-6.81195">
        <ele>23.979</ele>
        <time>2011-04-28T10:51:31Z</time>
      </trkpt>
      <trkpt lat="34.03883" lon="-6.8125">
        <ele>21.233</ele>
        <time>2011-04-28T10:51:46Z</time>
      </trkpt>
      <trkpt lat="34.04035" lon="-6.80991">
        <ele>23.597</ele>
        <time>2011-04-28T10:52:35Z</time>
      </trkpt>
      <trkpt lat="34.04302" lon="-6.81193">
        <ele>21.124</ele>
        <time>2011-04-28T10:53:36Z</time>
      </trkpt>
      <trkpt lat="34.04232" lon="-6.81327">
        <ele>30.117</ele>
        <time>2011-04-28T10:53:57Z</time>
      </trkpt>
      <trkpt lat="34.04073" lon="-6.8158">
        <ele>15.228</ele>
        <time>2011-04-28T10:54:26Z</time>
      </trkpt>
      <trkpt lat="34.04077" lon="-6.81619">
        <ele>14.191</ele>
        <time>2011-04-28T10:54:33Z</time>
      </trkpt>
      <trkpt lat="34.04409" lon="-6.81774">
        <ele>19.045</ele>
        <time>2011-04-28T10:55:22Z</time>
      </trkpt>
      <trkpt lat="34.04513" lon="-6.81789">
        <ele>18.342</ele>
        <time>2011-04-28T10:55:31Z</time>
      </trkpt>
      <trkpt lat="34.0466" lon="-6.81721">
        <ele>16.119</ele>
        <time>2011-04-28T10:55:42Z</time>
      </trkpt>
      <trkpt lat="34.05378" lon="-6.81012">
        <ele>16.586</ele>
        <time>2011-04-28T10:57:07Z</time>
      </trkpt>
      <trkpt lat="34.07843" lon="-6.77963">
        <ele>29.753</ele>
        <time>2011-04-28T11:01:54Z</time>
      </trkpt>
      <trkpt lat="34.08294" lon="-6.77492">
        <ele>29.21</ele>
        <time>2011-04-28T11:02:28Z</time>
      </trkpt>
      <trkpt lat="34.09571" lon="-6.76281">
        <ele>31.933</ele>
        <time>2011-04-28T11:03:56Z</time>
      </trkpt>
      <trkpt lat="34.10447" lon="-6.75628">
        <ele>19.916</ele>
        <time>2011-04-28T11:04:47Z</time>
      </trkpt>
      <trkpt lat="34.10816" lon="-6.75266">
        <ele>21.758</ele>
        <time>2011-04-28T11:05:12Z</time>
      </trkpt>
      <trkpt lat="34.11258" lon="-6.74801">
        <ele>22.764</ele>
        <time>2011-04-28T11:05:40Z</time>
      </trkpt>
      <trkpt lat="34.12053" lon="-6.74113">
        <ele>16.454</ele>
        <time>2011-04-28T11:06:35Z</time>
      </trkpt>
      <trkpt lat="34.13687" lon="-6.72781">
        <ele>22.093</ele>
        <time>2011-04-28T11:10:43Z</time>
      </trkpt>
      <trkpt lat="34.14827" lon="-6.71923">
        <ele>18.373</ele>
        <time>2011-04-28T11:11:50Z</time>
      </trkpt>
      <trkpt lat="34.15309" lon="-6.71497">
        <ele>10.799</ele>
        <time>2011-04-28T11:12:20Z</time>
      </trkpt>
      <trkpt lat="34.16118" lon="-6.70841">
        <ele>9.428</ele>
        <time>2011-04-28T11:13:20Z</time>
      </trkpt>
      <trkpt lat="34.16766" lon="-6.70128">
        <ele>14.548</ele>
        <time>2011-04-28T11:14:16Z</time>
      </trkpt>
      <trkpt lat="34.17627" lon="-6.69421">
        <ele>9.203</ele>
        <time>2011-04-28T11:15:13Z</time>
      </trkpt>
      <trkpt lat="34.19399" lon="-6.68232">
        <ele>9.112</ele>
        <time>2011-04-28T11:17:19Z</time>
      </trkpt>
      <trkpt lat="34.20325" lon="-6.67638">
        <ele>5.561</ele>
        <time>2011-04-28T11:18:31Z</time>
      </trkpt>
      <trkpt lat="34.20746" lon="-6.67223">
        <ele>6.868</ele>
        <time>2011-04-28T11:19:10Z</time>
      </trkpt>
      <trkpt lat="34.20908" lon="-6.67186">
        <ele>7.132</ele>
        <time>2011-04-28T11:19:19Z</time>
      </trkpt>
      <trkpt lat="34.2185" lon="-6.66467">
        <ele>16.14</ele>
        <time>2011-04-28T11:20:33Z</time>
      </trkpt>
      <trkpt lat="34.22057" lon="-6.66252">
        <ele>17.055</ele>
        <time>2011-04-28T11:20:50Z</time>
      </trkpt>
      <trkpt lat="34.22202" lon="-6.66067">
        <ele>18.206</ele>
        <time>2011-04-28T11:21:03Z</time>
      </trkpt>
      <trkpt lat="34.22302" lon="-6.6589">
        <ele>20.639</ele>
        <time>2011-04-28T11:21:13Z</time>
      </trkpt>
      <trkpt lat="34.22634" lon="-6.6525">
        <ele>29.455</ele>
        <time>2011-04-28T11:21:43Z</time>
      </trkpt>
      <trkpt lat="34.22641" lon="-6.65136">
        <ele>30.124</ele>
        <time>2011-04-28T11:21:47Z</time>
      </trkpt>
      <trkpt lat="34.22952" lon="-6.64598">
        <ele>42.024</ele>
        <time>2011-04-28T11:22:12Z</time>
      </trkpt>
      <trkpt lat="34.23175" lon="-6.64172">
        <ele>47.799</ele>
        <time>2011-04-28T11:22:31Z</time>
      </trkpt>
      <trkpt lat="34.23475" lon="-6.63415">
        <ele>42.93</ele>
        <time>2011-04-28T11:23:02Z</time>
      </trkpt>
      <trkpt lat="34.23682" lon="-6.6302">
        <ele>43.96</ele>
        <time>2011-04-28T11:23:20Z</time>
      </trkpt>
      <trkpt lat="34.24448" lon="-6.62223">
        <ele>30.216</ele>
        <time>2011-04-28T11:24:08Z</time>
      </trkpt>
      <trkpt lat="34.24666" lon="-6.61948">
        <ele>29.027</ele>
        <time>2011-04-28T11:24:25Z</time>
      </trkpt>
      <trkpt lat="34.24775" lon="-6.61746">
        <ele>22.752</ele>
        <time>2011-04-28T11:24:37Z</time>
      </trkpt>
      <trkpt lat="34.24842" lon="-6.61565">
        <ele>13.205</ele>
        <time>2011-04-28T11:24:48Z</time>
      </trkpt>
      <trkpt lat="34.24927" lon="-6.60726">
        <ele>10.783</ele>
        <time>2011-04-28T11:25:48Z</time>
      </trkpt>
      <trkpt lat="34.24965" lon="-6.60594">
        <ele>10.3</ele>
        <time>2011-04-28T11:26:01Z</time>
      </trkpt>
      <trkpt lat="34.24974" lon="-6.60565">
        <ele>9.637</ele>
        <time>2011-04-28T11:26:06Z</time>
      </trkpt>
      <trkpt lat="34.2491" lon="-6.60519">
        <ele>8.935</ele>
        <time>2011-04-28T11:26:10Z</time>
      </trkpt>
      <trkpt lat="34.24989" lon="-6.60513">
        <ele>12.126</ele>
        <time>2011-04-28T11:26:22Z</time>
      </trkpt>
      <trkpt lat="34.25058" lon="-6.60395">
        <ele>12.44</ele>
        <time>2011-04-28T11:26:32Z</time>
      </trkpt>
      <trkpt lat="34.25334" lon="-6.60047">
        <ele>10.483</ele>
        <time>2011-04-28T11:27:08Z</time>
      </trkpt>
      <trkpt lat="34.25549" lon="-6.59692">
        <ele>5.636</ele>
        <time>2011-04-28T11:27:53Z</time>
      </trkpt>
      <trkpt lat="34.25601" lon="-6.59412">
        <ele>6.967</ele>
        <time>2011-04-28T11:28:21Z</time>
      </trkpt>
      <trkpt lat="34.25769" lon="-6.58965">
        <ele>12.878</ele>
        <time>2011-04-28T11:29:07Z</time>
      </trkpt>
      <trkpt lat="34.26258" lon="-6.57708">
        <ele>13.415</ele>
        <time>2011-04-28T11:33:33Z</time>
      </trkpt>
      <trkpt lat="34.26369" lon="-6.56901">
        <ele>20.111</ele>
        <time>2011-04-28T11:39:03Z</time>
      </trkpt>
      <trkpt lat="34.26394" lon="-6.56811">
        <ele>18.991</ele>
        <time>2011-04-28T11:39:13Z</time>
      </trkpt>
      <trkpt lat="34.26619" lon="-6.56343">
        <ele>17.081</ele>
        <time>2011-04-28T11:40:34Z</time>
      </trkpt>
      <trkpt lat="34.271" lon="-6.55961">
        <ele>8.883</ele>
        <time>2011-04-28T11:41:49Z</time>
      </trkpt>
      <trkpt lat="34.27572" lon="-6.55512">
        <ele>4.962</ele>
        <time>2011-04-28T11:42:42Z</time>
      </trkpt>
      <trkpt lat="34.27628" lon="-6.55422">
        <ele>5.528</ele>
        <time>2011-04-28T11:42:52Z</time>
      </trkpt>
      <trkpt lat="34.27884" lon="-6.54626">
        <ele>10.633</ele>
        <time>2011-04-28T11:43:43Z</time>
      </trkpt>
      <trkpt lat="34.28086" lon="-6.53909">
        <ele>7.239</ele>
        <time>2011-04-28T11:44:30Z</time>
      </trkpt>
      <trkpt lat="34.28157" lon="-6.53736">
        <ele>7.409</ele>
        <time>2011-04-28T11:44:55Z</time>
      </trkpt>
      <trkpt lat="34.28096" lon="-6.53876">
        <ele>10.004</ele>
        <time>2011-04-28T11:45:15Z</time>
      </trkpt>
      <trkpt lat="34.28263" lon="-6.53458">
        <ele>10.763</ele>
        <time>2011-04-28T12:28:19Z</time>
      </trkpt>
      <trkpt lat="34.28339" lon="-6.5332">
        <ele>9.932</ele>
        <time>2011-04-28T12:28:46Z</time>
      </trkpt>
      <trkpt lat="34.28217" lon="-6.53556">
        <ele>13.722</ele>
        <time>2011-04-28T12:32:11Z</time>
      </trkpt>
      <trkpt lat="34.28113" lon="-6.53825">
        <ele>10.619</ele>
        <time>2011-04-28T12:32:30Z</time>
      </trkpt>
      <trkpt lat="34.27782" lon="-6.54963">
        <ele>11.709</ele>
        <time>2011-04-28T12:33:54Z</time>
      </trkpt>
      <trkpt lat="34.27614" lon="-6.55446">
        <ele>9.406</ele>
        <time>2011-04-28T12:34:20Z</time>
      </trkpt>
      <trkpt lat="34.27535" lon="-6.55547">
        <ele>7.91</ele>
        <time>2011-04-28T12:34:28Z</time>
      </trkpt>
      <trkpt lat="34.27046" lon="-6.56004">
        <ele>9.235</ele>
        <time>2011-04-28T12:35:21Z</time>
      </trkpt>
      <trkpt lat="34.26622" lon="-6.56321">
        <ele>16.693</ele>
        <time>2011-04-28T12:37:05Z</time>
      </trkpt>
      <trkpt lat="34.26585" lon="-6.56412">
        <ele>18.397</ele>
        <time>2011-04-28T12:37:12Z</time>
      </trkpt>
      <trkpt lat="34.26453" lon="-6.5669">
        <ele>19.821</ele>
        <time>2011-04-28T12:37:54Z</time>
      </trkpt>
      <trkpt lat="34.26374" lon="-6.56882">
        <ele>19.246</ele>
        <time>2011-04-28T12:38:13Z</time>
      </trkpt>
      <trkpt lat="34.2632" lon="-6.57232">
        <ele>19.558</ele>
        <time>2011-04-28T12:39:34Z</time>
      </trkpt>
      <trkpt lat="34.26283" lon="-6.57603">
        <ele>16.357</ele>
        <time>2011-04-28T12:40:11Z</time>
      </trkpt>
      <trkpt lat="34.26194" lon="-6.57862">
        <ele>13.192</ele>
        <time>2011-04-28T12:41:46Z</time>
      </trkpt>
      <trkpt lat="34.25731" lon="-6.57605">
        <ele>20.276</ele>
        <time>2011-04-28T12:42:36Z</time>
      </trkpt>
      <trkpt lat="34.25515" lon="-6.5748">
        <ele>17.896</ele>
        <time>2011-04-28T12:44:01Z</time>
      </trkpt>
      <trkpt lat="34.25374" lon="-6.5735">
        <ele>19.483</ele>
        <time>2011-04-28T12:44:12Z</time>
      </trkpt>
      <trkpt lat="34.25334" lon="-6.57339">
        <ele>21.324</ele>
        <time>2011-04-28T12:44:15Z</time>
      </trkpt>
      <trkpt lat="34.25299" lon="-6.57401">
        <ele>22.873</ele>
        <time>2011-04-28T12:44:17Z</time>
      </trkpt>
      <trkpt lat="34.25261" lon="-6.57406">
        <ele>25.925</ele>
        <time>2011-04-28T12:44:20Z</time>
      </trkpt>
      <trkpt lat="34.25235" lon="-6.5741">
        <ele>26.818</ele>
        <time>2011-04-28T12:44:22Z</time>
      </trkpt>
      <trkpt lat="34.25066" lon="-6.57426">
        <ele>24.509</ele>
        <time>2011-04-28T12:44:41Z</time>
      </trkpt>
      <trkpt lat="34.24561" lon="-6.57315">
        <ele>39.193</ele>
        <time>2011-04-28T12:45:14Z</time>
      </trkpt>
      <trkpt lat="34.2293" lon="-6.57072">
        <ele>42.875</ele>
        <time>2011-04-28T12:47:07Z</time>
      </trkpt>
      <trkpt lat="34.2287" lon="-6.57103">
        <ele>44.212</ele>
        <time>2011-04-28T12:47:13Z</time>
      </trkpt>
      <trkpt lat="34.22833" lon="-6.57163">
        <ele>48.521</ele>
        <time>2011-04-28T12:47:17Z</time>
      </trkpt>
      <trkpt lat="34.22857" lon="-6.57317">
        <ele>50.524</ele>
        <time>2011-04-28T12:47:24Z</time>
      </trkpt>
      <trkpt lat="34.22897" lon="-6.5738">
        <ele>40.581</ele>
        <time>2011-04-28T12:47:28Z</time>
      </trkpt>
      <trkpt lat="34.22954" lon="-6.57402">
        <ele>37.367</ele>
        <time>2011-04-28T12:47:33Z</time>
      </trkpt>
      <trkpt lat="34.23008" lon="-6.57355">
        <ele>36.43</ele>
        <time>2011-04-28T12:47:37Z</time>
      </trkpt>
      <trkpt lat="34.23024" lon="-6.56601">
        <ele>46.928</ele>
        <time>2011-04-28T12:48:04Z</time>
      </trkpt>
      <trkpt lat="34.22979" lon="-6.56232">
        <ele>48.407</ele>
        <time>2011-04-28T12:48:15Z</time>
      </trkpt>
      <trkpt lat="34.22907" lon="-6.55945">
        <ele>49.479</ele>
        <time>2011-04-28T12:48:24Z</time>
      </trkpt>
      <trkpt lat="34.22762" lon="-6.55559">
        <ele>51.941</ele>
        <time>2011-04-28T12:48:37Z</time>
      </trkpt>
      <trkpt lat="34.22536" lon="-6.54991">
        <ele>54.24</ele>
        <time>2011-04-28T12:48:57Z</time>
      </trkpt>
      <trkpt lat="34.2241" lon="-6.54682">
        <ele>53.57</ele>
        <time>2011-04-28T12:49:10Z</time>
      </trkpt>
      <trkpt lat="34.22344" lon="-6.54377">
        <ele>53.786</ele>
        <time>2011-04-28T12:49:24Z</time>
      </trkpt>
      <trkpt lat="34.22308" lon="-6.54115">
        <ele>52.698</ele>
        <time>2011-04-28T12:49:35Z</time>
      </trkpt>
      <trkpt lat="34.22322" lon="-6.53598">
        <ele>48.951</ele>
        <time>2011-04-28T12:49:56Z</time>
      </trkpt>
      <trkpt lat="34.22344" lon="-6.53454">
        <ele>45.53</ele>
        <time>2011-04-28T12:50:02Z</time>
      </trkpt>
      <trkpt lat="34.22421" lon="-6.53249">
        <ele>43.541</ele>
        <time>2011-04-28T12:50:11Z</time>
      </trkpt>
      <trkpt lat="34.22467" lon="-6.53136">
        <ele>41.565</ele>
        <time>2011-04-28T12:50:16Z</time>
      </trkpt>
      <trkpt lat="34.22909" lon="-6.52383">
        <ele>29.155</ele>
        <time>2011-04-28T12:50:53Z</time>
      </trkpt>
      <trkpt lat="34.23394" lon="-6.51993">
        <ele>31.681</ele>
        <time>2011-04-28T12:51:18Z</time>
      </trkpt>
      <trkpt lat="34.23621" lon="-6.51893">
        <ele>27.377</ele>
        <time>2011-04-28T12:51:27Z</time>
      </trkpt>
      <trkpt lat="34.2498" lon="-6.51632">
        <ele>28.36</ele>
        <time>2011-04-28T12:52:17Z</time>
      </trkpt>
      <trkpt lat="34.25383" lon="-6.51481">
        <ele>29.778</ele>
        <time>2011-04-28T12:52:32Z</time>
      </trkpt>
      <trkpt lat="34.27554" lon="-6.50638">
        <ele>29.252</ele>
        <time>2011-04-28T12:53:52Z</time>
      </trkpt>
      <trkpt lat="34.27945" lon="-6.50459">
        <ele>28.39</ele>
        <time>2011-04-28T12:54:07Z</time>
      </trkpt>
      <trkpt lat="34.28385" lon="-6.50339">
        <ele>22.237</ele>
        <time>2011-04-28T12:54:23Z</time>
      </trkpt>
      <trkpt lat="34.29276" lon="-6.50213">
        <ele>18.853</ele>
        <time>2011-04-28T12:54:55Z</time>
      </trkpt>
      <trkpt lat="34.29546" lon="-6.50252">
        <ele>24.568</ele>
        <time>2011-04-28T12:55:05Z</time>
      </trkpt>
      <trkpt lat="34.29916" lon="-6.50399">
        <ele>29.685</ele>
        <time>2011-04-28T12:55:19Z</time>
      </trkpt>
      <trkpt lat="34.30316" lon="-6.50651">
        <ele>19.557</ele>
        <time>2011-04-28T12:55:37Z</time>
      </trkpt>
      <trkpt lat="34.30956" lon="-6.50991">
        <ele>15.694</ele>
        <time>2011-04-28T12:57:21Z</time>
      </trkpt>
      <trkpt lat="34.31148" lon="-6.51069">
        <ele>21.95</ele>
        <time>2011-04-28T12:57:31Z</time>
      </trkpt>
      <trkpt lat="34.3135" lon="-6.51152">
        <ele>21.144</ele>
        <time>2011-04-28T12:57:39Z</time>
      </trkpt>
      <trkpt lat="34.31515" lon="-6.51198">
        <ele>22.871</ele>
        <time>2011-04-28T12:57:45Z</time>
      </trkpt>
      <trkpt lat="34.31772" lon="-6.51195">
        <ele>16.912</ele>
        <time>2011-04-28T12:57:54Z</time>
      </trkpt>
      <trkpt lat="34.33078" lon="-6.50995">
        <ele>20.677</ele>
        <time>2011-04-28T12:58:40Z</time>
      </trkpt>
      <trkpt lat="34.34067" lon="-6.50852">
        <ele>17.069</ele>
        <time>2011-04-28T12:59:15Z</time>
      </trkpt>
      <trkpt lat="34.34326" lon="-6.50862">
        <ele>19.376</ele>
        <time>2011-04-28T12:59:24Z</time>
      </trkpt>
      <trkpt lat="34.34648" lon="-6.50972">
        <ele>18.162</ele>
        <time>2011-04-28T12:59:36Z</time>
      </trkpt>
      <trkpt lat="34.36089" lon="-6.51691">
        <ele>18.808</ele>
        <time>2011-04-28T13:00:31Z</time>
      </trkpt>
      <trkpt lat="34.36468" lon="-6.5186">
        <ele>16.564</ele>
        <time>2011-04-28T13:00:45Z</time>
      </trkpt>
      <trkpt lat="34.37047" lon="-6.52012">
        <ele>16.195</ele>
        <time>2011-04-28T13:01:06Z</time>
      </trkpt>
      <trkpt lat="34.38941" lon="-6.51458">
        <ele>15.21</ele>
        <time>2011-04-28T13:02:13Z</time>
      </trkpt>
      <trkpt lat="34.39194" lon="-6.51465">
        <ele>16.255</ele>
        <time>2011-04-28T13:02:22Z</time>
      </trkpt>
      <trkpt lat="34.39436" lon="-6.5154">
        <ele>16.017</ele>
        <time>2011-04-28T13:02:31Z</time>
      </trkpt>
      <trkpt lat="34.39686" lon="-6.51695">
        <ele>18.497</ele>
        <time>2011-04-28T13:02:41Z</time>
      </trkpt>
      <trkpt lat="34.40222" lon="-6.52071">
        <ele>19.34</ele>
        <time>2011-04-28T13:03:03Z</time>
      </trkpt>
      <trkpt lat="34.40604" lon="-6.52292">
        <ele>16.84</ele>
        <time>2011-04-28T13:03:18Z</time>
      </trkpt>
      <trkpt lat="34.40849" lon="-6.52362">
        <ele>15.867</ele>
        <time>2011-04-28T13:03:27Z</time>
      </trkpt>
      <trkpt lat="34.41186" lon="-6.52404">
        <ele>14.551</ele>
        <time>2011-04-28T13:03:39Z</time>
      </trkpt>
      <trkpt lat="34.41387" lon="-6.52361">
        <ele>15.891</ele>
        <time>2011-04-28T13:03:46Z</time>
      </trkpt>
      <trkpt lat="34.42334" lon="-6.5196">
        <ele>30.019</ele>
        <time>2011-04-28T13:04:20Z</time>
      </trkpt>
      <trkpt lat="34.42362" lon="-6.51948">
        <ele>30.014</ele>
        <time>2011-04-28T13:04:21Z</time>
      </trkpt>
      <trkpt lat="34.42728" lon="-6.51807">
        <ele>25.126</ele>
        <time>2011-04-28T13:04:34Z</time>
      </trkpt>
      <trkpt lat="34.43614" lon="-6.511">
        <ele>28.202</ele>
        <time>2011-04-28T13:05:11Z</time>
      </trkpt>
      <trkpt lat="34.43868" lon="-6.50943">
        <ele>28.508</ele>
        <time>2011-04-28T13:05:21Z</time>
      </trkpt>
      <trkpt lat="34.44424" lon="-6.50696">
        <ele>23.063</ele>
        <time>2011-04-28T13:05:42Z</time>
      </trkpt>
      <trkpt lat="34.45016" lon="-6.5032">
        <ele>26.686</ele>
        <time>2011-04-28T13:06:06Z</time>
      </trkpt>
      <trkpt lat="34.45413" lon="-6.50151">
        <ele>28.894</ele>
        <time>2011-04-28T13:06:21Z</time>
      </trkpt>
      <trkpt lat="34.46485" lon="-6.49899">
        <ele>28.207</ele>
        <time>2011-04-28T13:06:58Z</time>
      </trkpt>
      <trkpt lat="34.47133" lon="-6.49691">
        <ele>22.963</ele>
        <time>2011-04-28T13:07:21Z</time>
      </trkpt>
      <trkpt lat="34.47261" lon="-6.49612">
        <ele>22.981</ele>
        <time>2011-04-28T13:07:26Z</time>
      </trkpt>
      <trkpt lat="34.47484" lon="-6.49387">
        <ele>25.769</ele>
        <time>2011-04-28T13:07:36Z</time>
      </trkpt>
      <trkpt lat="34.477" lon="-6.49139">
        <ele>26.157</ele>
        <time>2011-04-28T13:07:46Z</time>
      </trkpt>
      <trkpt lat="34.48066" lon="-6.48905">
        <ele>27.131</ele>
        <time>2011-04-28T13:08:00Z</time>
      </trkpt>
      <trkpt lat="34.48452" lon="-6.48683">
        <ele>24.328</ele>
        <time>2011-04-28T13:08:15Z</time>
      </trkpt>
      <trkpt lat="34.48721" lon="-6.48577">
        <ele>23.79</ele>
        <time>2011-04-28T13:08:25Z</time>
      </trkpt>
      <trkpt lat="34.49336" lon="-6.48439">
        <ele>24.929</ele>
        <time>2011-04-28T13:08:47Z</time>
      </trkpt>
      <trkpt lat="34.49644" lon="-6.48334">
        <ele>26.864</ele>
        <time>2011-04-28T13:08:58Z</time>
      </trkpt>
      <trkpt lat="34.49782" lon="-6.48282">
        <ele>27.332</ele>
        <time>2011-04-28T13:09:03Z</time>
      </trkpt>
      <trkpt lat="34.50614" lon="-6.4789">
        <ele>25.456</ele>
        <time>2011-04-28T13:09:33Z</time>
      </trkpt>
      <trkpt lat="34.50959" lon="-6.47678">
        <ele>28.492</ele>
        <time>2011-04-28T13:09:46Z</time>
      </trkpt>
      <trkpt lat="34.51342" lon="-6.4741">
        <ele>26.371</ele>
        <time>2011-04-28T13:10:01Z</time>
      </trkpt>
      <trkpt lat="34.51532" lon="-6.47309">
        <ele>26.868</ele>
        <time>2011-04-28T13:10:08Z</time>
      </trkpt>
      <trkpt lat="34.52374" lon="-6.47004">
        <ele>20.131</ele>
        <time>2011-04-28T13:10:38Z</time>
      </trkpt>
      <trkpt lat="34.53212" lon="-6.46632">
        <ele>17.329</ele>
        <time>2011-04-28T13:11:08Z</time>
      </trkpt>
      <trkpt lat="34.54097" lon="-6.46145">
        <ele>20.102</ele>
        <time>2011-04-28T13:11:41Z</time>
      </trkpt>
      <trkpt lat="34.55279" lon="-6.45876">
        <ele>15.506</ele>
        <time>2011-04-28T13:12:22Z</time>
      </trkpt>
      <trkpt lat="34.56332" lon="-6.4549">
        <ele>23.606</ele>
        <time>2011-04-28T13:12:59Z</time>
      </trkpt>
      <trkpt lat="34.56822" lon="-6.45343">
        <ele>20.013</ele>
        <time>2011-04-28T13:13:16Z</time>
      </trkpt>
      <trkpt lat="34.58132" lon="-6.44652">
        <ele>30.818</ele>
        <time>2011-04-28T13:14:04Z</time>
      </trkpt>
      <trkpt lat="34.58975" lon="-6.44315">
        <ele>27.009</ele>
        <time>2011-04-28T13:14:34Z</time>
      </trkpt>
      <trkpt lat="34.60485" lon="-6.43384">
        <ele>25.799</ele>
        <time>2011-04-28T13:15:30Z</time>
      </trkpt>
      <trkpt lat="34.61296" lon="-6.43059">
        <ele>23.902</ele>
        <time>2011-04-28T13:15:59Z</time>
      </trkpt>
      <trkpt lat="34.61538" lon="-6.42911">
        <ele>22.128</ele>
        <time>2011-04-28T13:16:08Z</time>
      </trkpt>
      <trkpt lat="34.62726" lon="-6.41971">
        <ele>23.433</ele>
        <time>2011-04-28T13:16:56Z</time>
      </trkpt>
      <trkpt lat="34.63261" lon="-6.41352">
        <ele>25.232</ele>
        <time>2011-04-28T13:17:21Z</time>
      </trkpt>
      <trkpt lat="34.63438" lon="-6.41259">
        <ele>26.651</ele>
        <time>2011-04-28T13:17:28Z</time>
      </trkpt>
      <trkpt lat="34.64428" lon="-6.40717">
        <ele>23.659</ele>
        <time>2011-04-28T13:18:05Z</time>
      </trkpt>
      <trkpt lat="34.64994" lon="-6.4024">
        <ele>24.624</ele>
        <time>2011-04-28T13:18:28Z</time>
      </trkpt>
      <trkpt lat="34.65742" lon="-6.39701">
        <ele>21.362</ele>
        <time>2011-04-28T13:18:57Z</time>
      </trkpt>
      <trkpt lat="34.66664" lon="-6.38939">
        <ele>30.53</ele>
        <time>2011-04-28T13:19:34Z</time>
      </trkpt>
      <trkpt lat="34.66765" lon="-6.38863">
        <ele>27.485</ele>
        <time>2011-04-28T13:19:38Z</time>
      </trkpt>
      <trkpt lat="34.67769" lon="-6.38658">
        <ele>26.495</ele>
        <time>2011-04-28T13:20:12Z</time>
      </trkpt>
      <trkpt lat="34.69536" lon="-6.38129">
        <ele>36.602</ele>
        <time>2011-04-28T13:21:13Z</time>
      </trkpt>
      <trkpt lat="34.70459" lon="-6.37711">
        <ele>38.363</ele>
        <time>2011-04-28T13:21:45Z</time>
      </trkpt>
      <trkpt lat="34.71926" lon="-6.37036">
        <ele>32.484</ele>
        <time>2011-04-28T13:22:36Z</time>
      </trkpt>
      <trkpt lat="34.73197" lon="-6.363">
        <ele>39.112</ele>
        <time>2011-04-28T13:23:24Z</time>
      </trkpt>
      <trkpt lat="34.73224" lon="-6.36283">
        <ele>39.109</ele>
        <time>2011-04-28T13:23:25Z</time>
      </trkpt>
      <trkpt lat="34.73624" lon="-6.3598">
        <ele>37.261</ele>
        <time>2011-04-28T13:23:41Z</time>
      </trkpt>
      <trkpt lat="34.74609" lon="-6.35139">
        <ele>37.064</ele>
        <time>2011-04-28T13:24:22Z</time>
      </trkpt>
      <trkpt lat="34.74883" lon="-6.34914">
        <ele>33.557</ele>
        <time>2011-04-28T13:24:33Z</time>
      </trkpt>
      <trkpt lat="34.75801" lon="-6.34059">
        <ele>24.041</ele>
        <time>2011-04-28T13:25:11Z</time>
      </trkpt>
      <trkpt lat="34.76122" lon="-6.33597">
        <ele>23.342</ele>
        <time>2011-04-28T13:25:27Z</time>
      </trkpt>
      <trkpt lat="34.76811" lon="-6.32414">
        <ele>27.057</ele>
        <time>2011-04-28T13:26:07Z</time>
      </trkpt>
      <trkpt lat="34.76942" lon="-6.32209">
        <ele>21.891</ele>
        <time>2011-04-28T13:26:14Z</time>
      </trkpt>
      <trkpt lat="34.77172" lon="-6.31932">
        <ele>15.764</ele>
        <time>2011-04-28T13:26:25Z</time>
      </trkpt>
      <trkpt lat="34.7739" lon="-6.31743">
        <ele>11.182</ele>
        <time>2011-04-28T13:26:34Z</time>
      </trkpt>
      <trkpt lat="34.78175" lon="-6.3124">
        <ele>28.259</ele>
        <time>2011-04-28T13:27:04Z</time>
      </trkpt>
      <trkpt lat="34.78201" lon="-6.3122">
        <ele>28.256</ele>
        <time>2011-04-28T13:27:05Z</time>
      </trkpt>
      <trkpt lat="34.78412" lon="-6.3102">
        <ele>28.46</ele>
        <time>2011-04-28T13:27:14Z</time>
      </trkpt>
      <trkpt lat="34.78748" lon="-6.30618">
        <ele>25.674</ele>
        <time>2011-04-28T13:27:30Z</time>
      </trkpt>
      <trkpt lat="34.7891" lon="-6.3046">
        <ele>28.09</ele>
        <time>2011-04-28T13:27:37Z</time>
      </trkpt>
      <trkpt lat="34.78955" lon="-6.30407">
        <ele>25.882</ele>
        <time>2011-04-28T13:27:39Z</time>
      </trkpt>
      <trkpt lat="34.79155" lon="-6.30128">
        <ele>33.765</ele>
        <time>2011-04-28T13:27:49Z</time>
      </trkpt>
      <trkpt lat="34.79342" lon="-6.29837">
        <ele>31.925</ele>
        <time>2011-04-28T13:27:59Z</time>
      </trkpt>
      <trkpt lat="34.79461" lon="-6.29491">
        <ele>29.279</ele>
        <time>2011-04-28T13:28:09Z</time>
      </trkpt>
      <trkpt lat="34.79641" lon="-6.28557">
        <ele>26.43</ele>
        <time>2011-04-28T13:28:35Z</time>
      </trkpt>
      <trkpt lat="34.79759" lon="-6.28043">
        <ele>21.71</ele>
        <time>2011-04-28T13:28:49Z</time>
      </trkpt>
      <trkpt lat="34.80078" lon="-6.26999">
        <ele>23.772</ele>
        <time>2011-04-28T13:29:19Z</time>
      </trkpt>
      <trkpt lat="34.80222" lon="-6.2652">
        <ele>18.375</ele>
        <time>2011-04-28T13:29:33Z</time>
      </trkpt>
      <trkpt lat="34.804" lon="-6.26037">
        <ele>16.603</ele>
        <time>2011-04-28T13:29:47Z</time>
      </trkpt>
      <trkpt lat="34.80798" lon="-6.25336">
        <ele>24.884</ele>
        <time>2011-04-28T13:30:10Z</time>
      </trkpt>
      <trkpt lat="34.81185" lon="-6.24757">
        <ele>23.791</ele>
        <time>2011-04-28T13:30:30Z</time>
      </trkpt>
      <trkpt lat="34.81328" lon="-6.24511">
        <ele>20.623</ele>
        <time>2011-04-28T13:30:38Z</time>
      </trkpt>
      <trkpt lat="34.81426" lon="-6.24416">
        <ele>22.587</ele>
        <time>2011-04-28T13:30:42Z</time>
      </trkpt>
      <trkpt lat="34.81958" lon="-6.2398">
        <ele>19.791</ele>
        <time>2011-04-28T13:31:03Z</time>
      </trkpt>
      <trkpt lat="34.8235" lon="-6.23707">
        <ele>17.994</ele>
        <time>2011-04-28T13:31:18Z</time>
      </trkpt>
      <trkpt lat="34.83108" lon="-6.23335">
        <ele>30.702</ele>
        <time>2011-04-28T13:31:45Z</time>
      </trkpt>
      <trkpt lat="34.8352" lon="-6.23024">
        <ele>33.284</ele>
        <time>2011-04-28T13:32:01Z</time>
      </trkpt>
      <trkpt lat="34.83882" lon="-6.22771">
        <ele>30.785</ele>
        <time>2011-04-28T13:32:15Z</time>
      </trkpt>
      <trkpt lat="34.84689" lon="-6.22506">
        <ele>17.586</ele>
        <time>2011-04-28T13:32:43Z</time>
      </trkpt>
      <trkpt lat="34.85966" lon="-6.22188">
        <ele>11.494</ele>
        <time>2011-04-28T13:33:27Z</time>
      </trkpt>
      <trkpt lat="34.86343" lon="-6.22058">
        <ele>13.479</ele>
        <time>2011-04-28T13:33:40Z</time>
      </trkpt>
      <trkpt lat="34.87709" lon="-6.21353">
        <ele>29.682</ele>
        <time>2011-04-28T13:34:29Z</time>
      </trkpt>
      <trkpt lat="34.87964" lon="-6.21234">
        <ele>31.074</ele>
        <time>2011-04-28T13:34:38Z</time>
      </trkpt>
      <trkpt lat="34.88342" lon="-6.21115">
        <ele>32.17</ele>
        <time>2011-04-28T13:34:51Z</time>
      </trkpt>
      <trkpt lat="34.88874" lon="-6.21004">
        <ele>36.222</ele>
        <time>2011-04-28T13:35:09Z</time>
      </trkpt>
      <trkpt lat="34.89328" lon="-6.20954">
        <ele>43.481</ele>
        <time>2011-04-28T13:35:24Z</time>
      </trkpt>
      <trkpt lat="34.90371" lon="-6.20808">
        <ele>47.876</ele>
        <time>2011-04-28T13:35:59Z</time>
      </trkpt>
      <trkpt lat="34.91953" lon="-6.20377">
        <ele>62.225</ele>
        <time>2011-04-28T13:36:52Z</time>
      </trkpt>
      <trkpt lat="34.92795" lon="-6.20253">
        <ele>75.55</ele>
        <time>2011-04-28T13:37:20Z</time>
      </trkpt>
      <trkpt lat="34.93226" lon="-6.20227">
        <ele>86.261</ele>
        <time>2011-04-28T13:37:34Z</time>
      </trkpt>
      <trkpt lat="34.93379" lon="-6.20234">
        <ele>88.048</ele>
        <time>2011-04-28T13:37:39Z</time>
      </trkpt>
      <trkpt lat="34.93719" lon="-6.20242">
        <ele>91.132</ele>
        <time>2011-04-28T13:37:50Z</time>
      </trkpt>
      <trkpt lat="34.95092" lon="-6.20169">
        <ele>83.332</ele>
        <time>2011-04-28T13:38:34Z</time>
      </trkpt>
      <trkpt lat="34.97261" lon="-6.19958">
        <ele>55.957</ele>
        <time>2011-04-28T13:39:45Z</time>
      </trkpt>
      <trkpt lat="34.98482" lon="-6.19933">
        <ele>51.553</ele>
        <time>2011-04-28T13:40:25Z</time>
      </trkpt>
      <trkpt lat="34.98839" lon="-6.19876">
        <ele>44.923</ele>
        <time>2011-04-28T13:40:37Z</time>
      </trkpt>
      <trkpt lat="34.99196" lon="-6.19769">
        <ele>45.13</ele>
        <time>2011-04-28T13:40:49Z</time>
      </trkpt>
      <trkpt lat="35.00273" lon="-6.19277">
        <ele>61.472</ele>
        <time>2011-04-28T13:41:26Z</time>
      </trkpt>
      <trkpt lat="35.01079" lon="-6.18922">
        <ele>59.874</ele>
        <time>2011-04-28T13:41:54Z</time>
      </trkpt>
      <trkpt lat="35.03096" lon="-6.18481">
        <ele>72.156</ele>
        <time>2011-04-28T13:43:01Z</time>
      </trkpt>
      <trkpt lat="35.03552" lon="-6.18362">
        <ele>82.388</ele>
        <time>2011-04-28T13:43:16Z</time>
      </trkpt>
      <trkpt lat="35.03881" lon="-6.18226">
        <ele>88.462</ele>
        <time>2011-04-28T13:43:27Z</time>
      </trkpt>
      <trkpt lat="35.05515" lon="-6.17212">
        <ele>80.733</ele>
        <time>2011-04-28T13:44:27Z</time>
      </trkpt>
      <trkpt lat="35.06037" lon="-6.16965">
        <ele>73.731</ele>
        <time>2011-04-28T13:44:45Z</time>
      </trkpt>
      <trkpt lat="35.06488" lon="-6.16709">
        <ele>69.851</ele>
        <time>2011-04-28T13:45:01Z</time>
      </trkpt>
      <trkpt lat="35.07515" lon="-6.15944">
        <ele>65.336</ele>
        <time>2011-04-28T13:45:40Z</time>
      </trkpt>
      <trkpt lat="35.09091" lon="-6.14958">
        <ele>55.547</ele>
        <time>2011-04-28T13:46:38Z</time>
      </trkpt>
      <trkpt lat="35.09736" lon="-6.14596">
        <ele>49.09</ele>
        <time>2011-04-28T13:47:01Z</time>
      </trkpt>
      <trkpt lat="35.09961" lon="-6.14501">
        <ele>43.985</ele>
        <time>2011-04-28T13:47:09Z</time>
      </trkpt>
      <trkpt lat="35.10887" lon="-6.14265">
        <ele>38.647</ele>
        <time>2011-04-28T13:47:40Z</time>
      </trkpt>
      <trkpt lat="35.11705" lon="-6.14246">
        <ele>37.071</ele>
        <time>2011-04-28T13:48:07Z</time>
      </trkpt>
      <trkpt lat="35.11945" lon="-6.14293">
        <ele>36.15</ele>
        <time>2011-04-28T13:48:15Z</time>
      </trkpt>
      <trkpt lat="35.13121" lon="-6.14654">
        <ele>29.492</ele>
        <time>2011-04-28T13:48:55Z</time>
      </trkpt>
      <trkpt lat="35.13334" lon="-6.14685">
        <ele>30.978</ele>
        <time>2011-04-28T13:49:02Z</time>
      </trkpt>
      <trkpt lat="35.13611" lon="-6.14665">
        <ele>29.977</ele>
        <time>2011-04-28T13:49:11Z</time>
      </trkpt>
      <trkpt lat="35.14193" lon="-6.14488">
        <ele>24.688</ele>
        <time>2011-04-28T13:49:31Z</time>
      </trkpt>
      <trkpt lat="35.14442" lon="-6.1433">
        <ele>27.131</ele>
        <time>2011-04-28T13:49:41Z</time>
      </trkpt>
      <trkpt lat="35.14654" lon="-6.14129">
        <ele>27.458</ele>
        <time>2011-04-28T13:49:50Z</time>
      </trkpt>
      <trkpt lat="35.15091" lon="-6.13552">
        <ele>27.296</ele>
        <time>2011-04-28T13:50:12Z</time>
      </trkpt>
      <trkpt lat="35.15572" lon="-6.13043">
        <ele>40.569</ele>
        <time>2011-04-28T13:50:33Z</time>
      </trkpt>
      <trkpt lat="35.15868" lon="-6.12839">
        <ele>47.34</ele>
        <time>2011-04-28T13:50:44Z</time>
      </trkpt>
      <trkpt lat="35.16035" lon="-6.1276">
        <ele>52.568</ele>
        <time>2011-04-28T13:50:50Z</time>
      </trkpt>
      <trkpt lat="35.16199" lon="-6.12681">
        <ele>55.457</ele>
        <time>2011-04-28T13:50:56Z</time>
      </trkpt>
      <trkpt lat="35.1642" lon="-6.1255">
        <ele>56.837</ele>
        <time>2011-04-28T13:51:05Z</time>
      </trkpt>
      <trkpt lat="35.16699" lon="-6.12383">
        <ele>49.912</ele>
        <time>2011-04-28T13:51:19Z</time>
      </trkpt>
      <trkpt lat="35.16902" lon="-6.12249">
        <ele>38.511</ele>
        <time>2011-04-28T13:51:42Z</time>
      </trkpt>
      <trkpt lat="35.1689" lon="-6.12192">
        <ele>40.412</ele>
        <time>2011-04-28T14:20:14Z</time>
      </trkpt>
      <trkpt lat="35.16897" lon="-6.122">
        <ele>45.4</ele>
        <time>2011-04-28T14:20:35Z</time>
      </trkpt>
      <trkpt lat="35.16938" lon="-6.12225">
        <ele>46.732</ele>
        <time>2011-04-28T14:20:40Z</time>
      </trkpt>
      <trkpt lat="35.16949" lon="-6.12218">
        <ele>46.463</ele>
        <time>2011-04-28T14:20:42Z</time>
      </trkpt>
      <trkpt lat="35.16941" lon="-6.12132">
        <ele>47.524</ele>
        <time>2011-04-28T14:20:51Z</time>
      </trkpt>
      <trkpt lat="35.17036" lon="-6.12123">
        <ele>45.835</ele>
        <time>2011-04-28T14:21:03Z</time>
      </trkpt>
      <trkpt lat="35.17034" lon="-6.12094">
        <ele>46.477</ele>
        <time>2011-04-28T14:21:16Z</time>
      </trkpt>
      <trkpt lat="35.1707" lon="-6.1208">
        <ele>44.289</ele>
        <time>2011-04-28T14:21:22Z</time>
      </trkpt>
      <trkpt lat="35.17239" lon="-6.11888">
        <ele>44.633</ele>
        <time>2011-04-28T14:21:37Z</time>
      </trkpt>
      <trkpt lat="35.17404" lon="-6.11701">
        <ele>40.745</ele>
        <time>2011-04-28T14:21:46Z</time>
      </trkpt>
      <trkpt lat="35.17555" lon="-6.11443">
        <ele>28.641</ele>
        <time>2011-04-28T14:21:56Z</time>
      </trkpt>
      <trkpt lat="35.17607" lon="-6.11299">
        <ele>25.467</ele>
        <time>2011-04-28T14:22:01Z</time>
      </trkpt>
      <trkpt lat="35.17759" lon="-6.10526">
        <ele>17.722</ele>
        <time>2011-04-28T14:22:25Z</time>
      </trkpt>
      <trkpt lat="35.1791" lon="-6.1001">
        <ele>17.964</ele>
        <time>2011-04-28T14:22:41Z</time>
      </trkpt>
      <trkpt lat="35.18132" lon="-6.09614">
        <ele>20.259</ele>
        <time>2011-04-28T14:22:55Z</time>
      </trkpt>
      <trkpt lat="35.19367" lon="-6.07717">
        <ele>26.623</ele>
        <time>2011-04-28T14:24:04Z</time>
      </trkpt>
      <trkpt lat="35.19668" lon="-6.07301">
        <ele>35.212</ele>
        <time>2011-04-28T14:24:20Z</time>
      </trkpt>
      <trkpt lat="35.19824" lon="-6.07163">
        <ele>42.853</ele>
        <time>2011-04-28T14:24:27Z</time>
      </trkpt>
      <trkpt lat="35.19936" lon="-6.07064">
        <ele>45.879</ele>
        <time>2011-04-28T14:24:32Z</time>
      </trkpt>
      <trkpt lat="35.20178" lon="-6.06983">
        <ele>60.607</ele>
        <time>2011-04-28T14:24:41Z</time>
      </trkpt>
      <trkpt lat="35.20348" lon="-6.06969">
        <ele>73.821</ele>
        <time>2011-04-28T14:24:47Z</time>
      </trkpt>
      <trkpt lat="35.2056" lon="-6.0687">
        <ele>84.113</ele>
        <time>2011-04-28T14:24:55Z</time>
      </trkpt>
      <trkpt lat="35.20783" lon="-6.06718">
        <ele>94.727</ele>
        <time>2011-04-28T14:25:04Z</time>
      </trkpt>
      <trkpt lat="35.21125" lon="-6.06384">
        <ele>106.215</ele>
        <time>2011-04-28T14:25:19Z</time>
      </trkpt>
      <trkpt lat="35.21452" lon="-6.06164">
        <ele>113</ele>
        <time>2011-04-28T14:25:32Z</time>
      </trkpt>
      <trkpt lat="35.21656" lon="-6.06107">
        <ele>118.674</ele>
        <time>2011-04-28T14:25:39Z</time>
      </trkpt>
      <trkpt lat="35.21886" lon="-6.06093">
        <ele>122.548</ele>
        <time>2011-04-28T14:25:47Z</time>
      </trkpt>
      <trkpt lat="35.22257" lon="-6.0616">
        <ele>123.799</ele>
        <time>2011-04-28T14:26:00Z</time>
      </trkpt>
      <trkpt lat="35.22683" lon="-6.06343">
        <ele>128.777</ele>
        <time>2011-04-28T14:26:16Z</time>
      </trkpt>
      <trkpt lat="35.22814" lon="-6.06406">
        <ele>130.222</ele>
        <time>2011-04-28T14:26:21Z</time>
      </trkpt>
      <trkpt lat="35.23488" lon="-6.0687">
        <ele>147.363</ele>
        <time>2011-04-28T14:26:48Z</time>
      </trkpt>
      <trkpt lat="35.23598" lon="-6.06902">
        <ele>150.943</ele>
        <time>2011-04-28T14:26:52Z</time>
      </trkpt>
      <trkpt lat="35.23848" lon="-6.07003">
        <ele>154.069</ele>
        <time>2011-04-28T14:27:01Z</time>
      </trkpt>
      <trkpt lat="35.2396" lon="-6.07039">
        <ele>156.612</ele>
        <time>2011-04-28T14:27:05Z</time>
      </trkpt>
      <trkpt lat="35.24227" lon="-6.07016">
        <ele>164.684</ele>
        <time>2011-04-28T14:27:14Z</time>
      </trkpt>
      <trkpt lat="35.24484" lon="-6.07059">
        <ele>173.673</ele>
        <time>2011-04-28T14:27:23Z</time>
      </trkpt>
      <trkpt lat="35.24627" lon="-6.07101">
        <ele>178.044</ele>
        <time>2011-04-28T14:27:28Z</time>
      </trkpt>
      <trkpt lat="35.24942" lon="-6.072">
        <ele>182.6</ele>
        <time>2011-04-28T14:27:39Z</time>
      </trkpt>
      <trkpt lat="35.25488" lon="-6.07347">
        <ele>183.907</ele>
        <time>2011-04-28T14:27:58Z</time>
      </trkpt>
      <trkpt lat="35.25759" lon="-6.07342">
        <ele>185.784</ele>
        <time>2011-04-28T14:28:07Z</time>
      </trkpt>
      <trkpt lat="35.26105" lon="-6.07246">
        <ele>188.053</ele>
        <time>2011-04-28T14:28:19Z</time>
      </trkpt>
      <trkpt lat="35.26913" lon="-6.06873">
        <ele>196.231</ele>
        <time>2011-04-28T14:28:48Z</time>
      </trkpt>
      <trkpt lat="35.27292" lon="-6.06802">
        <ele>198.854</ele>
        <time>2011-04-28T14:29:01Z</time>
      </trkpt>
      <trkpt lat="35.2774" lon="-6.0669">
        <ele>199.767</ele>
        <time>2011-04-28T14:29:17Z</time>
      </trkpt>
      <trkpt lat="35.27845" lon="-6.06627">
        <ele>201.144</ele>
        <time>2011-04-28T14:29:21Z</time>
      </trkpt>
      <trkpt lat="35.28031" lon="-6.06451">
        <ele>200.94</ele>
        <time>2011-04-28T14:29:29Z</time>
      </trkpt>
      <trkpt lat="35.28344" lon="-6.06066">
        <ele>201.656</ele>
        <time>2011-04-28T14:29:44Z</time>
      </trkpt>
      <trkpt lat="35.28416" lon="-6.05908">
        <ele>205.047</ele>
        <time>2011-04-28T14:29:49Z</time>
      </trkpt>
      <trkpt lat="35.28455" lon="-6.0581">
        <ele>203.363</ele>
        <time>2011-04-28T14:29:52Z</time>
      </trkpt>
      <trkpt lat="35.28506" lon="-6.05415">
        <ele>205.903</ele>
        <time>2011-04-28T14:30:03Z</time>
      </trkpt>
      <trkpt lat="35.28459" lon="-6.04728">
        <ele>203.706</ele>
        <time>2011-04-28T14:30:22Z</time>
      </trkpt>
      <trkpt lat="35.28521" lon="-6.04408">
        <ele>201.995</ele>
        <time>2011-04-28T14:30:31Z</time>
      </trkpt>
      <trkpt lat="35.28586" lon="-6.04241">
        <ele>199.299</ele>
        <time>2011-04-28T14:30:36Z</time>
      </trkpt>
      <trkpt lat="35.28967" lon="-6.03634">
        <ele>199.129</ele>
        <time>2011-04-28T14:30:57Z</time>
      </trkpt>
      <trkpt lat="35.29173" lon="-6.03329">
        <ele>196.762</ele>
        <time>2011-04-28T14:31:08Z</time>
      </trkpt>
      <trkpt lat="35.29427" lon="-6.03069">
        <ele>191.762</ele>
        <time>2011-04-28T14:31:19Z</time>
      </trkpt>
      <trkpt lat="35.29583" lon="-6.02955">
        <ele>188.731</ele>
        <time>2011-04-28T14:31:25Z</time>
      </trkpt>
      <trkpt lat="35.30162" lon="-6.02648">
        <ele>161.392</ele>
        <time>2011-04-28T14:31:46Z</time>
      </trkpt>
      <trkpt lat="35.30365" lon="-6.02494">
        <ele>151.246</ele>
        <time>2011-04-28T14:31:54Z</time>
      </trkpt>
      <trkpt lat="35.30912" lon="-6.01806">
        <ele>132.652</ele>
        <time>2011-04-28T14:32:22Z</time>
      </trkpt>
      <trkpt lat="35.31151" lon="-6.01592">
        <ele>134.754</ele>
        <time>2011-04-28T14:32:32Z</time>
      </trkpt>
      <trkpt lat="35.31387" lon="-6.01432">
        <ele>137.287</ele>
        <time>2011-04-28T14:32:41Z</time>
      </trkpt>
      <trkpt lat="35.317" lon="-6.01286">
        <ele>135.659</ele>
        <time>2011-04-28T14:32:52Z</time>
      </trkpt>
      <trkpt lat="35.32121" lon="-6.01211">
        <ele>130.533</ele>
        <time>2011-04-28T14:33:06Z</time>
      </trkpt>
      <trkpt lat="35.33493" lon="-6.0131">
        <ele>124.184</ele>
        <time>2011-04-28T14:33:52Z</time>
      </trkpt>
      <trkpt lat="35.33951" lon="-6.01347">
        <ele>120.868</ele>
        <time>2011-04-28T14:34:07Z</time>
      </trkpt>
      <trkpt lat="35.34441" lon="-6.01384">
        <ele>107.053</ele>
        <time>2011-04-28T14:34:23Z</time>
      </trkpt>
      <trkpt lat="35.36127" lon="-6.01746">
        <ele>109.721</ele>
        <time>2011-04-28T14:35:21Z</time>
      </trkpt>
      <trkpt lat="35.36734" lon="-6.0179">
        <ele>117.535</ele>
        <time>2011-04-28T14:35:41Z</time>
      </trkpt>
      <trkpt lat="35.37363" lon="-6.01913">
        <ele>110.299</ele>
        <time>2011-04-28T14:36:02Z</time>
      </trkpt>
      <trkpt lat="35.37817" lon="-6.02076">
        <ele>100.621</ele>
        <time>2011-04-28T14:36:18Z</time>
      </trkpt>
      <trkpt lat="35.38167" lon="-6.02212">
        <ele>87.982</ele>
        <time>2011-04-28T14:36:30Z</time>
      </trkpt>
      <trkpt lat="35.38721" lon="-6.02343">
        <ele>74.786</ele>
        <time>2011-04-28T14:36:49Z</time>
      </trkpt>
      <trkpt lat="35.38782" lon="-6.02351">
        <ele>72.914</ele>
        <time>2011-04-28T14:36:51Z</time>
      </trkpt>
      <trkpt lat="35.38986" lon="-6.02344">
        <ele>66.005</ele>
        <time>2011-04-28T14:36:58Z</time>
      </trkpt>
      <trkpt lat="35.4008" lon="-6.02062">
        <ele>61.647</ele>
        <time>2011-04-28T14:37:36Z</time>
      </trkpt>
      <trkpt lat="35.40346" lon="-6.02065">
        <ele>60.333</ele>
        <time>2011-04-28T14:37:45Z</time>
      </trkpt>
      <trkpt lat="35.40636" lon="-6.02113">
        <ele>61.144</ele>
        <time>2011-04-28T14:37:55Z</time>
      </trkpt>
      <trkpt lat="35.41845" lon="-6.0245">
        <ele>57.456</ele>
        <time>2011-04-28T14:38:37Z</time>
      </trkpt>
      <trkpt lat="35.42936" lon="-6.02712">
        <ele>70.749</ele>
        <time>2011-04-28T14:39:14Z</time>
      </trkpt>
      <trkpt lat="35.43511" lon="-6.02684">
        <ele>83.749</ele>
        <time>2011-04-28T14:39:33Z</time>
      </trkpt>
      <trkpt lat="35.43786" lon="-6.0265">
        <ele>81.281</ele>
        <time>2011-04-28T14:39:42Z</time>
      </trkpt>
      <trkpt lat="35.44873" lon="-6.02248">
        <ele>71.768</ele>
        <time>2011-04-28T14:40:19Z</time>
      </trkpt>
      <trkpt lat="35.45077" lon="-6.02162">
        <ele>68.336</ele>
        <time>2011-04-28T14:40:26Z</time>
      </trkpt>
      <trkpt lat="35.45342" lon="-6.0205">
        <ele>58.747</ele>
        <time>2011-04-28T14:40:35Z</time>
      </trkpt>
      <trkpt lat="35.45536" lon="-6.01922">
        <ele>50.325</ele>
        <time>2011-04-28T14:40:42Z</time>
      </trkpt>
      <trkpt lat="35.45591" lon="-6.01881">
        <ele>44.766</ele>
        <time>2011-04-28T14:40:44Z</time>
      </trkpt>
      <trkpt lat="35.45847" lon="-6.01668">
        <ele>33.267</ele>
        <time>2011-04-28T14:40:54Z</time>
      </trkpt>
      <trkpt lat="35.46123" lon="-6.01381">
        <ele>24.486</ele>
        <time>2011-04-28T14:41:06Z</time>
      </trkpt>
      <trkpt lat="35.46736" lon="-6.00569">
        <ele>49.135</ele>
        <time>2011-04-28T14:41:36Z</time>
      </trkpt>
      <trkpt lat="35.46986" lon="-6.00243">
        <ele>52.296</ele>
        <time>2011-04-28T14:41:48Z</time>
      </trkpt>
      <trkpt lat="35.47379" lon="-5.99766">
        <ele>40.84</ele>
        <time>2011-04-28T14:42:06Z</time>
      </trkpt>
      <trkpt lat="35.47654" lon="-5.99528">
        <ele>28.885</ele>
        <time>2011-04-28T14:42:17Z</time>
      </trkpt>
      <trkpt lat="35.48047" lon="-5.99329">
        <ele>20.286</ele>
        <time>2011-04-28T14:42:31Z</time>
      </trkpt>
      <trkpt lat="35.48782" lon="-5.99055">
        <ele>20.058</ele>
        <time>2011-04-28T14:42:57Z</time>
      </trkpt>
      <trkpt lat="35.49778" lon="-5.98729">
        <ele>17.901</ele>
        <time>2011-04-28T14:43:31Z</time>
      </trkpt>
      <trkpt lat="35.50083" lon="-5.98694">
        <ele>17.191</ele>
        <time>2011-04-28T14:43:41Z</time>
      </trkpt>
      <trkpt lat="35.50513" lon="-5.98753">
        <ele>25.251</ele>
        <time>2011-04-28T14:43:55Z</time>
      </trkpt>
      <trkpt lat="35.51442" lon="-5.98958">
        <ele>49.578</ele>
        <time>2011-04-28T14:44:26Z</time>
      </trkpt>
      <trkpt lat="35.51472" lon="-5.98965">
        <ele>49.573</ele>
        <time>2011-04-28T14:44:27Z</time>
      </trkpt>
      <trkpt lat="35.52059" lon="-5.99101">
        <ele>41.468</ele>
        <time>2011-04-28T14:44:46Z</time>
      </trkpt>
      <trkpt lat="35.52493" lon="-5.99152">
        <ele>32.373</ele>
        <time>2011-04-28T14:45:00Z</time>
      </trkpt>
      <trkpt lat="35.52892" lon="-5.9911">
        <ele>23.444</ele>
        <time>2011-04-28T14:45:13Z</time>
      </trkpt>
      <trkpt lat="35.53283" lon="-5.9897">
        <ele>16.035</ele>
        <time>2011-04-28T14:45:26Z</time>
      </trkpt>
      <trkpt lat="35.54363" lon="-5.98468">
        <ele>14.716</ele>
        <time>2011-04-28T14:46:04Z</time>
      </trkpt>
      <trkpt lat="35.54971" lon="-5.98111">
        <ele>15.962</ele>
        <time>2011-04-28T14:46:26Z</time>
      </trkpt>
      <trkpt lat="35.56038" lon="-5.9761">
        <ele>13.516</ele>
        <time>2011-04-28T14:47:03Z</time>
      </trkpt>
      <trkpt lat="35.56165" lon="-5.97414">
        <ele>11.963</ele>
        <time>2011-04-28T14:47:09Z</time>
      </trkpt>
      <trkpt lat="35.575" lon="-5.9618">
        <ele>52.035</ele>
        <time>2011-04-28T14:48:03Z</time>
      </trkpt>
      <trkpt lat="35.57744" lon="-5.95974">
        <ele>56.132</ele>
        <time>2011-04-28T14:48:13Z</time>
      </trkpt>
      <trkpt lat="35.58183" lon="-5.9566">
        <ele>56.104</ele>
        <time>2011-04-28T14:48:30Z</time>
      </trkpt>
      <trkpt lat="35.58452" lon="-5.95636">
        <ele>47.492</ele>
        <time>2011-04-28T14:48:39Z</time>
      </trkpt>
      <trkpt lat="35.58721" lon="-5.95705">
        <ele>37.983</ele>
        <time>2011-04-28T14:48:48Z</time>
      </trkpt>
      <trkpt lat="35.59289" lon="-5.961">
        <ele>20.174</ele>
        <time>2011-04-28T14:49:10Z</time>
      </trkpt>
      <trkpt lat="35.59725" lon="-5.96177">
        <ele>24.68</ele>
        <time>2011-04-28T14:49:25Z</time>
      </trkpt>
      <trkpt lat="35.60289" lon="-5.9623">
        <ele>28.754</ele>
        <time>2011-04-28T14:49:44Z</time>
      </trkpt>
      <trkpt lat="35.61164" lon="-5.96133">
        <ele>34.787</ele>
        <time>2011-04-28T14:50:12Z</time>
      </trkpt>
      <trkpt lat="35.61952" lon="-5.95985">
        <ele>55.664</ele>
        <time>2011-04-28T14:50:37Z</time>
      </trkpt>
      <trkpt lat="35.62332" lon="-5.95925">
        <ele>51.246</ele>
        <time>2011-04-28T14:50:49Z</time>
      </trkpt>
      <trkpt lat="35.62705" lon="-5.95972">
        <ele>42.754</ele>
        <time>2011-04-28T14:51:01Z</time>
      </trkpt>
      <trkpt lat="35.63301" lon="-5.9608">
        <ele>21.219</ele>
        <time>2011-04-28T14:51:21Z</time>
      </trkpt>
      <trkpt lat="35.63602" lon="-5.96083">
        <ele>15.63</ele>
        <time>2011-04-28T14:51:31Z</time>
      </trkpt>
      <trkpt lat="35.64471" lon="-5.95924">
        <ele>15.534</ele>
        <time>2011-04-28T14:52:00Z</time>
      </trkpt>
      <trkpt lat="35.64924" lon="-5.95775">
        <ele>18.325</ele>
        <time>2011-04-28T14:52:15Z</time>
      </trkpt>
      <trkpt lat="35.65128" lon="-5.95668">
        <ele>18.249</ele>
        <time>2011-04-28T14:52:22Z</time>
      </trkpt>
      <trkpt lat="35.6537" lon="-5.95483">
        <ele>20.87</ele>
        <time>2011-04-28T14:52:31Z</time>
      </trkpt>
      <trkpt lat="35.6625" lon="-5.94569">
        <ele>38.306</ele>
        <time>2011-04-28T14:53:09Z</time>
      </trkpt>
      <trkpt lat="35.67355" lon="-5.93449">
        <ele>25.218</ele>
        <time>2011-04-28T14:53:59Z</time>
      </trkpt>
      <trkpt lat="35.6755" lon="-5.93186">
        <ele>20.274</ele>
        <time>2011-04-28T14:54:11Z</time>
      </trkpt>
      <trkpt lat="35.6806" lon="-5.92317">
        <ele>16.746</ele>
        <time>2011-04-28T14:57:25Z</time>
      </trkpt>
      <trkpt lat="35.68179" lon="-5.92118">
        <ele>11.433</ele>
        <time>2011-04-28T14:57:47Z</time>
      </trkpt>
      <trkpt lat="35.68347" lon="-5.9197">
        <ele>14.049</ele>
        <time>2011-04-28T14:58:04Z</time>
      </trkpt>
      <trkpt lat="35.68697" lon="-5.91755">
        <ele>15.624</ele>
        <time>2011-04-28T14:58:23Z</time>
      </trkpt>
      <trkpt lat="35.68974" lon="-5.91675">
        <ele>19.238</ele>
        <time>2011-04-28T14:58:37Z</time>
      </trkpt>
      <trkpt lat="35.69884" lon="-5.91613">
        <ele>16.02</ele>
        <time>2011-04-28T14:59:24Z</time>
      </trkpt>
      <trkpt lat="35.69957" lon="-5.9157">
        <ele>17.815</ele>
        <time>2011-04-28T14:59:28Z</time>
      </trkpt>
      <trkpt lat="35.71188" lon="-5.90398">
        <ele>25.364</ele>
        <time>2011-04-28T15:01:07Z</time>
      </trkpt>
      <trkpt lat="35.71345" lon="-5.90337">
        <ele>22.657</ele>
        <time>2011-04-28T15:01:17Z</time>
      </trkpt>
      <trkpt lat="35.71685" lon="-5.90413">
        <ele>14.518</ele>
        <time>2011-04-28T15:01:45Z</time>
      </trkpt>
      <trkpt lat="35.71814" lon="-5.90403">
        <ele>14.929</ele>
        <time>2011-04-28T15:01:53Z</time>
      </trkpt>
      <trkpt lat="35.71939" lon="-5.90316">
        <ele>14.31</ele>
        <time>2011-04-28T15:02:01Z</time>
      </trkpt>
      <trkpt lat="35.72032" lon="-5.90217">
        <ele>11.305</ele>
        <time>2011-04-28T15:02:08Z</time>
      </trkpt>
      <trkpt lat="35.72317" lon="-5.89815">
        <ele>13.145</ele>
        <time>2011-04-28T15:02:37Z</time>
      </trkpt>
      <trkpt lat="35.72417" lon="-5.89631">
        <ele>13.35</ele>
        <time>2011-04-28T15:02:48Z</time>
      </trkpt>
      <trkpt lat="35.73215" lon="-5.87124">
        <ele>34.239</ele>
        <time>2011-04-28T15:05:24Z</time>
      </trkpt>
      <trkpt lat="35.73651" lon="-5.85998">
        <ele>51.717</ele>
        <time>2011-04-28T15:06:29Z</time>
      </trkpt>
      <trkpt lat="35.73797" lon="-5.85467">
        <ele>58.994</ele>
        <time>2011-04-28T15:07:25Z</time>
      </trkpt>
      <trkpt lat="35.73947" lon="-5.84891">
        <ele>55.355</ele>
        <time>2011-04-28T15:08:06Z</time>
      </trkpt>
      <trkpt lat="35.74023" lon="-5.84746">
        <ele>57.692</ele>
        <time>2011-04-28T15:08:15Z</time>
      </trkpt>
      <trkpt lat="35.74916" lon="-5.83999">
        <ele>46.623</ele>
        <time>2011-04-28T15:09:52Z</time>
      </trkpt>
      <trkpt lat="35.74982" lon="-5.83855">
        <ele>49.833</ele>
        <time>2011-04-28T15:10:02Z</time>
      </trkpt>
      <trkpt lat="35.75053" lon="-5.83515">
        <ele>50.841</ele>
        <time>2011-04-28T15:10:21Z</time>
      </trkpt>
      <trkpt lat="35.75126" lon="-5.83418">
        <ele>49.822</ele>
        <time>2011-04-28T15:10:29Z</time>
      </trkpt>
      <trkpt lat="35.75571" lon="-5.83151">
        <ele>34.885</ele>
        <time>2011-04-28T15:11:35Z</time>
      </trkpt>
      <trkpt lat="35.75876" lon="-5.82876">
        <ele>19.705</ele>
        <time>2011-04-28T15:12:18Z</time>
      </trkpt>
      <trkpt lat="35.75921" lon="-5.82752">
        <ele>20.923</ele>
        <time>2011-04-28T15:12:29Z</time>
      </trkpt>
      <trkpt lat="35.75914" lon="-5.82415">
        <ele>22.663</ele>
        <time>2011-04-28T15:13:00Z</time>
      </trkpt>
      <trkpt lat="35.75925" lon="-5.82239">
        <ele>21.843</ele>
        <time>2011-04-28T15:13:10Z</time>
      </trkpt>
      <trkpt lat="35.75975" lon="-5.8209">
        <ele>21.013</ele>
        <time>2011-04-28T15:13:19Z</time>
      </trkpt>
      <trkpt lat="35.76056" lon="-5.81972">
        <ele>18.653</ele>
        <time>2011-04-28T15:13:28Z</time>
      </trkpt>
      <trkpt lat="35.76347" lon="-5.81673">
        <ele>12.143</ele>
        <time>2011-04-28T15:14:19Z</time>
      </trkpt>
      <trkpt lat="35.76395" lon="-5.81569">
        <ele>11.29</ele>
        <time>2011-04-28T15:14:28Z</time>
      </trkpt>
      <trkpt lat="35.76482" lon="-5.81195">
        <ele>7.939</ele>
        <time>2011-04-28T15:17:05Z</time>
      </trkpt>
      <trkpt lat="35.76646" lon="-5.80902">
        <ele>7.854</ele>
        <time>2011-04-28T15:17:36Z</time>
      </trkpt>
      <trkpt lat="35.76898" lon="-5.80486">
        <ele>3.625</ele>
        <time>2011-04-28T15:18:19Z</time>
      </trkpt>
      <trkpt lat="35.76984" lon="-5.80301">
        <ele>1.693</ele>
        <time>2011-04-28T15:18:59Z</time>
      </trkpt>
      <trkpt lat="35.77033" lon="-5.80316">
        <ele>1.481</ele>
        <time>2011-04-28T15:19:06Z</time>
      </trkpt>
      <trkpt lat="35.77102" lon="-5.8028">
        <ele>2.999</ele>
        <time>2011-04-28T15:19:27Z</time>
      </trkpt>
      <trkpt lat="35.77437" lon="-5.80091">
        <ele>5.351</ele>
        <time>2011-04-28T15:20:32Z</time>
      </trkpt>
      <trkpt lat="35.77691" lon="-5.79951">
        <ele>6.309</ele>
        <time>2011-04-28T15:22:04Z</time>
      </trkpt>
      <trkpt lat="35.77753" lon="-5.79921">
        <ele>1.443</ele>
        <time>2011-04-28T15:22:18Z</time>
      </trkpt>
      <trkpt lat="35.77583" lon="-5.79396">
        <ele>2.166</ele>
        <time>2011-04-28T15:23:01Z</time>
      </trkpt>
      <trkpt lat="35.77496" lon="-5.79312">
        <ele>1.03</ele>
        <time>2011-04-28T15:23:20Z</time>
      </trkpt>
      <trkpt lat="35.77544" lon="-5.78897">
        <ele>4.125</ele>
        <time>2011-04-28T15:23:53Z</time>
      </trkpt>
      <trkpt lat="35.77545" lon="-5.78863">
        <ele>0.05</ele>
        <time>2011-04-28T15:23:59Z</time>
      </trkpt>
      <trkpt lat="35.77199" lon="-5.78681">
        <ele>0.675</ele>
        <time>2011-04-28T15:24:38Z</time>
      </trkpt>
      <trkpt lat="35.77243" lon="-5.78666">
        <ele>0.971</ele>
        <time>2011-04-28T15:24:47Z</time>
      </trkpt>
      <trkpt lat="35.77245" lon="-5.78642">
        <ele>2.394</ele>
        <time>2011-04-28T15:26:53Z</time>
      </trkpt>
      <trkpt lat="35.77243" lon="-5.78576">
        <ele>3.402</ele>
        <time>2011-04-28T15:27:05Z</time>
      </trkpt>
      <trkpt lat="35.7725" lon="-5.78469">
        <ele>1.969</ele>
        <time>2011-04-28T15:27:16Z</time>
      </trkpt>
      <trkpt lat="35.77195" lon="-5.78346">
        <ele>1.925</ele>
        <time>2011-04-28T15:27:28Z</time>
      </trkpt>
      <trkpt lat="35.772" lon="-5.78295">
        <ele>1.479</ele>
        <time>2011-04-28T15:27:38Z</time>
      </trkpt>
      <trkpt lat="35.77217" lon="-5.78305">
        <ele>0.72</ele>
        <time>2011-04-28T15:28:11Z</time>
      </trkpt>
    </trkseg>
  </trk>
</gpx>